Time,TemperatureF,DewpointF,PressureIn,WindDirection,WindDirectionDegrees,WindSpeedMPH,WindSpeedGustMPH,Humidity,HourlyPrecipIn,Conditions,Clouds,dailyrainin,SoftwareType,DateUTC
2013-10-10 00:00:00,46.8,46.0,30.25,NE,51,0.0,0.0,97,0.00,,,0.00,Wunderground v.1.15,2013-10-10 04:00:00,
2013-10-10 00:01:00,46.8,46.0,30.25,NE,51,0.0,0.0,97,0.00,,,0.00,Wunderground v.1.15,2013-10-10 04:01:00,
2013-10-10 00:02:00,46.8,46.0,30.25,NE,51,0.0,0.0,97,0.00,,,0.00,Wunderground v.1.15,2013-10-10 04:02:00,
2013-10-10 00:03:00,46.8,46.0,30.25,NE,51,0.0,0.0,97,0.00,,,0.00,Wunderground v.1.15,2013-10-10 04:03:00,
2013-10-10 00:05:00,46.8,46.0,30.25,NE,51,0.0,0.0,97,0.00,,,0.00,Wunderground v.1.15,2013-10-10 04:05:00,
2013-10-10 00:06:00,46.7,45.9,30.25,NE,51,0.0,0.0,97,0.00,,,0.00,Wunderground v.1.15,2013-10-10 04:06:00,
2013-10-10 00:07:00,46.7,45.6,30.25,NE,51,0.0,0.0,96,0.00,,,0.00,Wunderground v.1.15,2013-10-10 04:07:00,
2013-10-10 00:08:00,46.7,45.6,30.24,NE,51,0.0,0.0,96,0.00,,,0.00,Wunderground v.1.15,2013-10-10 04:08:00,
2013-10-10 00:09:00,46.6,45.5,30.25,NE,51,0.0,0.0,96,0.00,,,0.00,Wunderground v.1.15,2013-10-10 04:09:00,
2013-10-10 00:12:00,46.3,45.2,30.24,NE,51,0.0,0.0,96,0.00,,,0.00,Wunderground v.1.15,2013-10-10 04:12:00,
2013-10-10 00:13:00,46.2,44.8,30.24,NE,51,0.0,0.0,95,0.00,,,0.00,Wunderground v.1.15,2013-10-10 04:13:00,
2013-10-10 00:14:00,46.0,44.6,30.24,NE,51,0.0,0.0,95,0.00,,,0.00,Wunderground v.1.15,2013-10-10 04:14:00,
2013-10-10 00:15:00,45.9,44.5,30.24,NE,51,0.0,0.0,95,0.00,,,0.00,Wunderground v.1.15,2013-10-10 04:15:00,
2013-10-10 00:17:00,45.6,44.3,30.24,NE,51,0.0,0.0,95,0.00,,,0.00,Wunderground v.1.15,2013-10-10 04:17:00,
2013-10-10 00:18:00,45.5,44.2,30.24,NE,51,0.0,0.0,95,0.00,,,0.00,Wunderground v.1.15,2013-10-10 04:18:00,
2013-10-10 00:20:00,45.3,44.0,30.24,NE,51,0.0,0.0,95,0.00,,,0.00,Wunderground v.1.15,2013-10-10 04:20:00,
2013-10-10 00:22:00,45.2,44.1,30.24,NE,51,0.0,0.0,96,0.00,,,0.00,Wunderground v.1.15,2013-10-10 04:22:00,
2013-10-10 00:23:00,45.2,44.1,30.24,NE,51,0.0,0.0,96,0.00,,,0.00,Wunderground v.1.15,2013-10-10 04:23:00,
2013-10-10 00:25:00,45.3,44.5,30.24,NE,51,0.0,0.0,97,0.00,,,0.00,Wunderground v.1.15,2013-10-10 04:25:00,
2013-10-10 00:28:00,45.3,44.5,30.24,NE,51,0.0,0.0,97,0.00,,,0.00,Wunderground v.1.15,2013-10-10 04:28:00,
2013-10-10 00:29:00,45.3,44.5,30.24,NE,51,0.0,0.0,97,0.00,,,0.00,Wunderground v.1.15,2013-10-10 04:29:00,
2013-10-10 00:30:00,45.3,44.5,30.24,NE,51,0.0,0.0,97,0.00,,,0.00,Wunderground v.1.15,2013-10-10 04:30:00,
2013-10-10 00:31:00,45.3,44.5,30.24,NE,51,0.0,1.0,97,0.00,,,0.00,Wunderground v.1.15,2013-10-10 04:31:00,
2013-10-10 00:33:00,45.2,44.4,30.24,NE,51,0.0,1.0,97,0.00,,,0.00,Wunderground v.1.15,2013-10-10 04:33:00,
2013-10-10 00:36:00,45.1,44.0,30.24,NE,51,0.0,1.0,96,0.00,,,0.00,Wunderground v.1.15,2013-10-10 04:36:00,
2013-10-10 00:37:00,45.1,44.0,30.24,NE,51,0.0,1.0,96,0.00,,,0.00,Wunderground v.1.15,2013-10-10 04:37:00,
2013-10-10 00:39:00,45.1,44.3,30.24,NE,51,0.0,1.0,97,0.00,,,0.00,Wunderground v.1.15,2013-10-10 04:39:00,
2013-10-10 00:40:00,45.1,44.3,30.24,NE,51,0.0,1.0,97,0.00,,,0.00,Wunderground v.1.15,2013-10-10 04:40:00,
2013-10-10 00:42:00,45.1,44.3,30.24,NE,51,0.0,1.0,97,0.00,,,0.00,Wunderground v.1.15,2013-10-10 04:42:00,
2013-10-10 00:43:00,45.1,44.3,30.24,NE,51,0.0,1.0,97,0.00,,,0.00,Wunderground v.1.15,2013-10-10 04:43:00,
2013-10-10 00:44:00,45.1,44.3,30.24,NE,51,0.0,1.0,97,0.00,,,0.00,Wunderground v.1.15,2013-10-10 04:44:00,
2013-10-10 00:45:00,45.1,44.3,30.24,NE,51,0.0,1.0,97,0.00,,,0.00,Wunderground v.1.15,2013-10-10 04:45:00,
2013-10-10 00:46:00,45.1,44.3,30.24,NE,51,0.0,1.0,97,0.00,,,0.00,Wunderground v.1.15,2013-10-10 04:46:00,
2013-10-10 00:47:00,45.1,44.3,30.24,NE,51,0.0,1.0,97,0.00,,,0.00,Wunderground v.1.15,2013-10-10 04:47:00,
2013-10-10 00:49:00,45.1,44.3,30.24,NE,51,0.0,1.0,97,0.00,,,0.00,Wunderground v.1.15,2013-10-10 04:49:00,
2013-10-10 00:50:00,45.1,44.3,30.24,NE,51,0.0,1.0,97,0.00,,,0.00,Wunderground v.1.15,2013-10-10 04:50:00,
2013-10-10 00:51:00,45.1,44.3,30.24,NE,51,0.0,1.0,97,0.00,,,0.00,Wunderground v.1.15,2013-10-10 04:51:00,
2013-10-10 00:53:00,45.2,44.4,30.23,NE,51,0.0,1.0,97,0.00,,,0.00,Wunderground v.1.15,2013-10-10 04:53:00,
2013-10-10 00:54:00,45.3,44.5,30.23,NE,51,0.0,1.0,97,0.00,,,0.00,Wunderground v.1.15,2013-10-10 04:54:00,
2013-10-10 00:59:00,45.2,44.4,30.23,NE,51,0.0,1.0,97,0.00,,,0.00,Wunderground v.1.15,2013-10-10 04:59:00,
2013-10-10 01:01:00,45.1,44.3,30.23,NE,51,0.0,1.0,97,0.00,,,0.00,Wunderground v.1.15,2013-10-10 05:01:00,
2013-10-10 01:04:00,44.9,44.1,30.23,NE,51,0.0,1.0,97,0.00,,,0.00,Wunderground v.1.15,2013-10-10 05:04:00,
2013-10-10 01:05:00,44.8,44.0,30.23,NE,51,0.0,1.0,97,0.00,,,0.00,Wunderground v.1.15,2013-10-10 05:05:00,
2013-10-10 01:06:00,44.7,43.9,30.23,NE,51,0.0,1.0,97,0.00,,,0.00,Wunderground v.1.15,2013-10-10 05:06:00,
2013-10-10 01:07:00,44.8,44.0,30.23,NE,51,0.0,1.0,97,0.00,,,0.00,Wunderground v.1.15,2013-10-10 05:07:00,
2013-10-10 01:11:00,44.7,43.9,30.23,NE,51,0.0,1.0,97,0.00,,,0.00,Wunderground v.1.15,2013-10-10 05:11:00,
2013-10-10 01:12:00,44.7,43.9,30.23,NE,51,0.0,1.0,97,0.00,,,0.00,Wunderground v.1.15,2013-10-10 05:12:00,
2013-10-10 01:13:00,44.6,43.8,30.23,NE,51,0.0,1.0,97,0.00,,,0.00,Wunderground v.1.15,2013-10-10 05:13:00,
2013-10-10 01:14:00,44.5,43.7,30.23,NE,51,0.0,1.0,97,0.00,,,0.00,Wunderground v.1.15,2013-10-10 05:14:00,
2013-10-10 01:15:00,44.5,43.7,30.23,NE,51,0.0,1.0,97,0.00,,,0.00,Wunderground v.1.15,2013-10-10 05:15:00,
2013-10-10 01:16:00,44.5,43.7,30.23,NE,51,0.0,1.0,97,0.00,,,0.00,Wunderground v.1.15,2013-10-10 05:16:00,
2013-10-10 01:18:00,44.6,43.8,30.23,NE,51,0.0,1.0,97,0.00,,,0.00,Wunderground v.1.15,2013-10-10 05:18:00,
2013-10-10 01:20:00,44.8,44.3,30.23,NE,51,0.0,1.0,98,0.00,,,0.00,Wunderground v.1.15,2013-10-10 05:20:00,
2013-10-10 01:21:00,44.8,44.3,30.23,NE,51,0.0,1.0,98,0.00,,,0.00,Wunderground v.1.15,2013-10-10 05:21:00,
2013-10-10 01:24:00,44.7,44.2,30.23,NE,51,0.0,1.0,98,0.00,,,0.00,Wunderground v.1.15,2013-10-10 05:24:00,
2013-10-10 01:25:00,44.5,43.7,30.23,NE,51,0.0,1.0,97,0.00,,,0.00,Wunderground v.1.15,2013-10-10 05:25:00,
2013-10-10 01:26:00,44.3,43.5,30.23,NE,51,0.0,1.0,97,0.00,,,0.00,Wunderground v.1.15,2013-10-10 05:26:00,
2013-10-10 01:27:00,44.2,43.4,30.23,NE,51,0.0,1.0,97,0.00,,,0.00,Wunderground v.1.15,2013-10-10 05:27:00,
2013-10-10 01:31:00,43.8,42.7,30.23,NE,51,0.0,1.0,96,0.00,,,0.00,Wunderground v.1.15,2013-10-10 05:31:00,
2013-10-10 01:32:00,43.7,42.6,30.23,NE,51,0.0,1.0,96,0.00,,,0.00,Wunderground v.1.15,2013-10-10 05:32:00,
2013-10-10 01:33:00,43.7,42.6,30.23,NE,51,0.0,1.0,96,0.00,,,0.00,Wunderground v.1.15,2013-10-10 05:33:00,
2013-10-10 01:36:00,43.8,43.0,30.22,NE,51,0.0,1.0,97,0.00,,,0.00,Wunderground v.1.15,2013-10-10 05:36:00,
2013-10-10 01:39:00,43.8,43.0,30.22,NE,51,0.0,1.0,97,0.00,,,0.00,Wunderground v.1.15,2013-10-10 05:39:00,
2013-10-10 01:41:00,43.8,43.0,30.22,NE,51,0.0,1.0,97,0.00,,,0.00,Wunderground v.1.15,2013-10-10 05:41:00,
2013-10-10 01:42:00,43.8,43.0,30.23,NE,51,0.0,1.0,97,0.00,,,0.00,Wunderground v.1.15,2013-10-10 05:42:00,
2013-10-10 01:43:00,43.8,43.3,30.22,NE,51,0.0,1.0,98,0.00,,,0.00,Wunderground v.1.15,2013-10-10 05:43:00,
2013-10-10 01:44:00,43.8,43.3,30.22,NE,51,0.0,1.0,98,0.00,,,0.00,Wunderground v.1.15,2013-10-10 05:44:00,
2013-10-10 01:47:00,43.8,43.0,30.22,NE,51,0.0,1.0,97,0.00,,,0.00,Wunderground v.1.15,2013-10-10 05:47:00,
2013-10-10 01:49:00,43.7,42.9,30.22,NE,51,0.0,1.0,97,0.00,,,0.00,Wunderground v.1.15,2013-10-10 05:49:00,
2013-10-10 01:50:00,43.7,42.9,30.22,NE,51,0.0,1.0,97,0.00,,,0.00,Wunderground v.1.15,2013-10-10 05:50:00,
2013-10-10 01:55:00,43.4,42.6,30.22,NE,51,0.0,1.0,97,0.00,,,0.00,Wunderground v.1.15,2013-10-10 05:55:00,
2013-10-10 01:58:00,43.3,42.5,30.22,NE,51,0.0,1.0,97,0.00,,,0.00,Wunderground v.1.15,2013-10-10 05:58:00,
2013-10-10 02:02:00,43.1,42.3,30.22,NE,51,0.0,1.0,97,0.00,,,0.00,Wunderground v.1.15,2013-10-10 06:02:00,
2013-10-10 02:03:00,43.1,42.3,30.22,NE,51,0.0,1.0,97,0.00,,,0.00,Wunderground v.1.15,2013-10-10 06:03:00,
2013-10-10 02:04:00,43.1,42.3,30.22,NE,51,0.0,1.0,97,0.00,,,0.00,Wunderground v.1.15,2013-10-10 06:04:00,
2013-10-10 02:05:00,43.1,42.3,30.22,NE,51,0.0,1.0,97,0.00,,,0.00,Wunderground v.1.15,2013-10-10 06:05:00,
2013-10-10 02:10:00,42.9,42.1,30.22,NE,51,0.0,1.0,97,0.00,,,0.00,Wunderground v.1.15,2013-10-10 06:10:00,
2013-10-10 02:11:00,42.9,42.1,30.22,NE,51,0.0,1.0,97,0.00,,,0.00,Wunderground v.1.15,2013-10-10 06:11:00,
2013-10-10 02:12:00,42.9,42.1,30.22,NE,51,0.0,1.0,97,0.00,,,0.00,Wunderground v.1.15,2013-10-10 06:12:00,
2013-10-10 02:16:00,42.8,42.0,30.22,NE,51,0.0,1.0,97,0.00,,,0.00,Wunderground v.1.15,2013-10-10 06:16:00,
2013-10-10 02:17:00,42.7,41.9,30.22,NE,51,0.0,1.0,97,0.00,,,0.00,Wunderground v.1.15,2013-10-10 06:17:00,
2013-10-10 02:18:00,42.7,41.9,30.22,NE,51,0.0,1.0,97,0.00,,,0.00,Wunderground v.1.15,2013-10-10 06:18:00,
2013-10-10 02:20:00,42.7,41.9,30.22,NE,51,0.0,1.0,97,0.00,,,0.00,Wunderground v.1.15,2013-10-10 06:20:00,
2013-10-10 02:21:00,42.7,42.2,30.22,NE,51,0.0,1.0,98,0.00,,,0.00,Wunderground v.1.15,2013-10-10 06:21:00,
2013-10-10 02:22:00,42.7,42.2,30.22,NE,51,0.0,1.0,98,0.00,,,0.00,Wunderground v.1.15,2013-10-10 06:22:00,
2013-10-10 02:24:00,42.7,42.2,30.22,NE,51,0.0,1.0,98,0.00,,,0.00,Wunderground v.1.15,2013-10-10 06:24:00,
2013-10-10 02:26:00,42.7,41.9,30.22,NE,51,0.0,1.0,97,0.00,,,0.00,Wunderground v.1.15,2013-10-10 06:26:00,
2013-10-10 02:28:00,42.7,42.2,30.22,NE,51,0.0,1.0,98,0.00,,,0.00,Wunderground v.1.15,2013-10-10 06:28:00,
2013-10-10 02:29:00,42.7,42.2,30.22,NE,51,0.0,1.0,98,0.00,,,0.00,Wunderground v.1.15,2013-10-10 06:29:00,
2013-10-10 02:31:00,42.8,42.3,30.22,NE,51,0.0,1.0,98,0.00,,,0.00,Wunderground v.1.15,2013-10-10 06:31:00,
2013-10-10 02:32:00,42.8,42.3,30.22,NE,51,0.0,1.0,98,0.00,,,0.00,Wunderground v.1.15,2013-10-10 06:32:00,
2013-10-10 02:35:00,42.9,42.4,30.22,NE,51,0.0,1.0,98,0.00,,,0.00,Wunderground v.1.15,2013-10-10 06:35:00,
2013-10-10 02:38:00,42.8,42.3,30.22,NE,51,0.0,1.0,98,0.00,,,0.00,Wunderground v.1.15,2013-10-10 06:38:00,
2013-10-10 02:39:00,42.8,42.3,30.22,NE,51,0.0,1.0,98,0.00,,,0.00,Wunderground v.1.15,2013-10-10 06:39:00,
2013-10-10 02:40:00,42.8,42.3,30.22,NE,51,0.0,1.0,98,0.00,,,0.00,Wunderground v.1.15,2013-10-10 06:40:00,
2013-10-10 02:42:00,42.7,42.2,30.22,NE,51,0.0,1.0,98,0.00,,,0.00,Wunderground v.1.15,2013-10-10 06:42:00,
2013-10-10 02:44:00,42.7,41.9,30.22,NE,51,0.0,1.0,97,0.00,,,0.00,Wunderground v.1.15,2013-10-10 06:44:00,
2013-10-10 02:47:00,42.5,41.7,30.22,NE,51,0.0,1.0,97,0.00,,,0.00,Wunderground v.1.15,2013-10-10 06:47:00,
2013-10-10 02:48:00,42.4,41.6,30.22,NE,51,0.0,1.0,97,0.00,,,0.00,Wunderground v.1.15,2013-10-10 06:48:00,
2013-10-10 02:51:00,42.2,41.4,30.22,NE,51,0.0,1.0,97,0.00,,,0.00,Wunderground v.1.15,2013-10-10 06:51:00,
2013-10-10 02:54:00,42.0,41.2,30.22,NNW,337,1.0,2.0,97,0.00,,,0.00,Wunderground v.1.15,2013-10-10 06:54:00,
2013-10-10 02:55:00,41.9,41.1,30.22,NNW,337,1.0,2.0,97,0.00,,,0.00,Wunderground v.1.15,2013-10-10 06:55:00,
2013-10-10 02:56:00,41.9,41.1,30.22,NNW,337,1.0,2.0,97,0.00,,,0.00,Wunderground v.1.15,2013-10-10 06:56:00,
2013-10-10 02:57:00,41.8,41.0,30.22,NNW,337,1.0,2.0,97,0.00,,,0.00,Wunderground v.1.15,2013-10-10 06:57:00,
2013-10-10 02:59:00,41.7,40.9,30.22,NNW,337,1.0,2.0,97,0.00,,,0.00,Wunderground v.1.15,2013-10-10 06:59:00,
2013-10-10 03:01:00,41.6,40.8,30.22,NNW,337,1.0,2.0,97,0.00,,,0.00,Wunderground v.1.15,2013-10-10 07:01:00,
2013-10-10 03:03:00,41.6,40.8,30.22,NNW,337,1.0,2.0,97,0.00,,,0.00,Wunderground v.1.15,2013-10-10 07:03:00,
2013-10-10 03:06:00,41.5,41.0,30.21,NNW,337,1.0,2.0,98,0.00,,,0.00,Wunderground v.1.15,2013-10-10 07:06:00,
2013-10-10 03:07:00,41.5,41.0,30.21,NNW,337,1.0,2.0,98,0.00,,,0.00,Wunderground v.1.15,2013-10-10 07:07:00,
2013-10-10 03:08:00,41.5,41.0,30.21,NNW,337,0.0,2.0,98,0.00,,,0.00,Wunderground v.1.15,2013-10-10 07:08:00,
2013-10-10 03:09:00,41.4,40.6,30.21,NNW,337,0.0,2.0,97,0.00,,,0.00,Wunderground v.1.15,2013-10-10 07:09:00,
2013-10-10 03:10:00,41.4,40.6,30.21,NNW,337,0.0,1.0,97,0.00,,,0.00,Wunderground v.1.15,2013-10-10 07:10:00,
2013-10-10 03:12:00,41.4,40.9,30.21,NNW,337,0.0,1.0,98,0.00,,,0.00,Wunderground v.1.15,2013-10-10 07:12:00,
2013-10-10 03:13:00,41.4,40.9,30.21,NNW,337,0.0,1.0,98,0.00,,,0.00,Wunderground v.1.15,2013-10-10 07:13:00,
2013-10-10 03:15:00,41.5,41.0,30.21,NNW,337,0.0,1.0,98,0.00,,,0.00,Wunderground v.1.15,2013-10-10 07:15:00,
2013-10-10 03:16:00,41.5,41.0,30.21,NNW,337,0.0,1.0,98,0.00,,,0.00,Wunderground v.1.15,2013-10-10 07:16:00,
2013-10-10 03:18:00,41.6,41.1,30.21,NNW,337,0.0,1.0,98,0.00,,,0.00,Wunderground v.1.15,2013-10-10 07:18:00,
2013-10-10 03:19:00,41.7,41.2,30.21,NNW,337,1.0,1.0,98,0.00,,,0.00,Wunderground v.1.15,2013-10-10 07:19:00,
2013-10-10 03:20:00,41.8,41.3,30.21,NNW,337,1.0,1.0,98,0.00,,,0.00,Wunderground v.1.15,2013-10-10 07:20:00,
2013-10-10 03:21:00,41.8,41.3,30.21,NNW,337,1.0,1.0,98,0.00,,,0.00,Wunderground v.1.15,2013-10-10 07:21:00,
2013-10-10 03:24:00,41.9,41.4,30.21,NNW,337,1.0,1.0,98,0.00,,,0.00,Wunderground v.1.15,2013-10-10 07:24:00,
2013-10-10 03:25:00,42.0,41.5,30.21,NNW,337,0.0,1.0,98,0.00,,,0.00,Wunderground v.1.15,2013-10-10 07:25:00,
2013-10-10 03:27:00,42.2,41.7,30.21,NNW,337,0.0,1.0,98,0.00,,,0.00,Wunderground v.1.15,2013-10-10 07:27:00,
2013-10-10 03:29:00,42.3,41.8,30.21,NE,54,0.0,2.0,98,0.00,,,0.00,Wunderground v.1.15,2013-10-10 07:29:00,
2013-10-10 03:30:00,42.2,41.7,30.21,ENE,74,0.0,2.0,98,0.00,,,0.00,Wunderground v.1.15,2013-10-10 07:30:00,
2013-10-10 03:31:00,42.1,41.6,30.22,ENE,74,0.0,2.0,98,0.00,,,0.00,Wunderground v.1.15,2013-10-10 07:31:00,
2013-10-10 03:32:00,42.0,41.5,30.21,ENE,74,1.0,2.0,98,0.00,,,0.00,Wunderground v.1.15,2013-10-10 07:32:00,
2013-10-10 03:36:00,41.7,41.2,30.21,ENE,74,1.0,2.0,98,0.00,,,0.00,Wunderground v.1.15,2013-10-10 07:36:00,
2013-10-10 03:37:00,41.7,41.2,30.21,ENE,74,1.0,2.0,98,0.00,,,0.00,Wunderground v.1.15,2013-10-10 07:37:00,
2013-10-10 03:38:00,41.7,41.2,30.21,ENE,74,1.0,2.0,98,0.00,,,0.00,Wunderground v.1.15,2013-10-10 07:38:00,
2013-10-10 05:23:00,41.1,40.6,30.21,NE,52,1.0,1.0,98,0.00,,,0.00,Wunderground v.1.15,2013-10-10 09:23:00,
2013-10-10 05:24:00,41.2,40.7,30.21,NE,51,1.0,2.0,98,0.00,,,0.00,Wunderground v.1.15,2013-10-10 09:24:00,
2013-10-10 05:26:00,41.7,41.4,30.21,NE,49,1.0,2.0,99,0.00,,,0.00,Wunderground v.1.15,2013-10-10 09:26:00,
2013-10-10 05:28:00,42.0,41.7,30.21,NE,49,1.0,2.0,99,0.00,,,0.00,Wunderground v.1.15,2013-10-10 09:28:00,
2013-10-10 05:31:00,42.3,42.0,30.21,NE,49,1.0,2.0,99,0.00,,,0.00,Wunderground v.1.15,2013-10-10 09:31:00,
2013-10-10 05:32:00,42.3,42.0,30.21,NE,49,1.0,2.0,99,0.00,,,0.00,Wunderground v.1.15,2013-10-10 09:32:00,
2013-10-10 05:33:00,42.2,41.9,30.21,NE,49,1.0,1.0,99,0.00,,,0.00,Wunderground v.1.15,2013-10-10 09:33:00,
2013-10-10 05:36:00,41.9,41.6,30.21,NE,49,0.0,1.0,99,0.00,,,0.00,Wunderground v.1.15,2013-10-10 09:36:00,
2013-10-10 05:37:00,41.8,41.5,30.21,NE,49,0.0,1.0,99,0.00,,,0.00,Wunderground v.1.15,2013-10-10 09:37:00,
2013-10-10 05:38:00,41.6,41.3,30.21,NE,49,0.0,1.0,99,0.00,,,0.00,Wunderground v.1.15,2013-10-10 09:38:00,
2013-10-10 05:42:00,41.1,40.6,30.21,NE,49,0.0,1.0,98,0.00,,,0.00,Wunderground v.1.15,2013-10-10 09:42:00,
2013-10-10 05:43:00,41.0,40.5,30.21,NE,49,0.0,1.0,98,0.00,,,0.00,Wunderground v.1.15,2013-10-10 09:43:00,
2013-10-10 05:44:00,40.9,40.4,30.21,NE,49,0.0,1.0,98,0.00,,,0.00,Wunderground v.1.15,2013-10-10 09:44:00,
2013-10-10 05:46:00,40.8,40.3,30.21,NE,49,0.0,1.0,98,0.00,,,0.00,Wunderground v.1.15,2013-10-10 09:46:00,
2013-10-10 05:48:00,40.8,40.3,30.21,NE,49,0.0,1.0,98,0.00,,,0.00,Wunderground v.1.15,2013-10-10 09:48:00,
2013-10-10 05:49:00,40.8,40.3,30.21,NE,49,0.0,1.0,98,0.00,,,0.00,Wunderground v.1.15,2013-10-10 09:49:00,
2013-10-10 05:50:00,40.8,40.3,30.21,NE,49,0.0,1.0,98,0.00,,,0.00,Wunderground v.1.15,2013-10-10 09:50:00,
2013-10-10 05:51:00,40.8,40.3,30.21,NE,49,0.0,1.0,98,0.00,,,0.00,Wunderground v.1.15,2013-10-10 09:51:00,
2013-10-10 05:53:00,40.8,40.3,30.21,NE,49,0.0,1.0,98,0.00,,,0.00,Wunderground v.1.15,2013-10-10 09:53:00,
2013-10-10 05:56:00,40.7,40.2,30.21,NE,49,0.0,1.0,98,0.00,,,0.00,Wunderground v.1.15,2013-10-10 09:56:00,
2013-10-10 05:58:00,40.7,40.2,30.21,NE,49,0.0,1.0,98,0.00,,,0.00,Wunderground v.1.15,2013-10-10 09:58:00,
2013-10-10 05:59:00,40.7,40.2,30.21,NE,49,0.0,1.0,98,0.00,,,0.00,Wunderground v.1.15,2013-10-10 09:59:00,
2013-10-10 06:01:00,40.8,40.3,30.21,NE,49,0.0,1.0,98,0.00,,,0.00,Wunderground v.1.15,2013-10-10 10:01:00,
2013-10-10 06:02:00,40.8,40.3,30.21,NE,49,0.0,1.0,98,0.00,,,0.00,Wunderground v.1.15,2013-10-10 10:02:00,
2013-10-10 06:03:00,40.8,40.3,30.21,NE,49,0.0,1.0,98,0.00,,,0.00,Wunderground v.1.15,2013-10-10 10:03:00,
2013-10-10 06:04:00,40.9,40.6,30.21,NE,49,0.0,1.0,99,0.00,,,0.00,Wunderground v.1.15,2013-10-10 10:04:00,
2013-10-10 06:07:00,41.0,40.7,30.21,NE,49,0.0,1.0,99,0.00,,,0.01,Wunderground v.1.15,2013-10-10 10:07:00,
2013-10-10 06:09:00,41.1,40.8,30.21,NE,49,0.0,1.0,99,0.00,,,0.01,Wunderground v.1.15,2013-10-10 10:09:00,
2013-10-10 06:12:00,41.1,40.8,30.21,NE,49,0.0,1.0,99,0.00,,,0.01,Wunderground v.1.15,2013-10-10 10:12:00,
2013-10-10 06:15:00,41.1,40.8,30.21,NE,49,0.0,1.0,99,0.00,,,0.01,Wunderground v.1.15,2013-10-10 10:15:00,
2013-10-10 06:16:00,41.1,40.8,30.21,NE,49,0.0,1.0,99,0.00,,,0.01,Wunderground v.1.15,2013-10-10 10:16:00,
2013-10-10 06:20:00,41.1,40.8,30.22,NE,49,0.0,1.0,99,0.00,,,0.01,Wunderground v.1.15,2013-10-10 10:20:00,
2013-10-10 06:21:00,41.0,40.7,30.21,NE,49,0.0,1.0,99,0.00,,,0.01,Wunderground v.1.15,2013-10-10 10:21:00,
2013-10-10 06:23:00,41.0,40.7,30.21,NE,49,0.0,1.0,99,0.00,,,0.01,Wunderground v.1.15,2013-10-10 10:23:00,
2013-10-10 06:25:00,40.9,40.6,30.21,NE,49,0.0,1.0,99,0.00,,,0.01,Wunderground v.1.15,2013-10-10 10:25:00,
2013-10-10 06:26:00,40.9,40.6,30.22,NE,49,0.0,1.0,99,0.00,,,0.01,Wunderground v.1.15,2013-10-10 10:26:00,
2013-10-10 06:28:00,40.8,40.5,30.21,NE,49,0.0,1.0,99,0.00,,,0.01,Wunderground v.1.15,2013-10-10 10:28:00,
2013-10-10 06:30:00,40.6,40.1,30.21,NE,49,0.0,1.0,98,0.00,,,0.01,Wunderground v.1.15,2013-10-10 10:30:00,
2013-10-10 06:31:00,40.6,40.1,30.21,NE,49,0.0,1.0,98,0.00,,,0.01,Wunderground v.1.15,2013-10-10 10:31:00,
2013-10-10 06:33:00,40.5,40.0,30.21,NE,49,0.0,1.0,98,0.00,,,0.01,Wunderground v.1.15,2013-10-10 10:33:00,
2013-10-10 06:35:00,40.4,39.9,30.21,NE,49,0.0,1.0,98,0.00,,,0.01,Wunderground v.1.15,2013-10-10 10:35:00,
2013-10-10 06:36:00,40.3,39.8,30.21,NE,49,0.0,1.0,98,0.00,,,0.01,Wunderground v.1.15,2013-10-10 10:36:00,
2013-10-10 06:38:00,40.2,39.7,30.21,NE,49,0.0,1.0,98,0.00,,,0.01,Wunderground v.1.15,2013-10-10 10:38:00,
2013-10-10 06:40:00,40.3,39.8,30.21,NE,49,0.0,1.0,98,0.00,,,0.01,Wunderground v.1.15,2013-10-10 10:40:00,
2013-10-10 06:42:00,40.3,39.8,30.21,NE,49,0.0,1.0,98,0.00,,,0.01,Wunderground v.1.15,2013-10-10 10:42:00,
2013-10-10 06:43:00,40.4,39.9,30.21,NE,49,0.0,1.0,98,0.00,,,0.01,Wunderground v.1.15,2013-10-10 10:43:00,
2013-10-10 06:44:00,40.4,40.1,30.21,NE,49,0.0,1.0,99,0.00,,,0.01,Wunderground v.1.15,2013-10-10 10:44:00,
2013-10-10 06:45:00,40.4,40.1,30.21,NE,49,0.0,1.0,99,0.00,,,0.01,Wunderground v.1.15,2013-10-10 10:45:00,
2013-10-10 06:47:00,40.4,40.1,30.21,NE,49,0.0,1.0,99,0.00,,,0.01,Wunderground v.1.15,2013-10-10 10:47:00,
2013-10-10 06:49:00,40.4,40.1,30.22,NE,49,0.0,1.0,99,0.00,,,0.01,Wunderground v.1.15,2013-10-10 10:49:00,
2013-10-10 06:50:00,40.4,40.1,30.22,NE,49,0.0,1.0,99,0.00,,,0.01,Wunderground v.1.15,2013-10-10 10:50:00,
2013-10-10 06:51:00,40.4,40.1,30.21,NE,49,0.0,1.0,99,0.00,,,0.01,Wunderground v.1.15,2013-10-10 10:51:00,
2013-10-10 06:54:00,40.3,40.0,30.22,NE,49,0.0,1.0,99,0.00,,,0.01,Wunderground v.1.15,2013-10-10 10:54:00,
2013-10-10 06:56:00,40.2,39.7,30.22,NE,49,0.0,1.0,98,0.00,,,0.01,Wunderground v.1.15,2013-10-10 10:56:00,
2013-10-10 06:57:00,40.2,39.7,30.22,NE,49,0.0,1.0,98,0.00,,,0.01,Wunderground v.1.15,2013-10-10 10:57:00,
2013-10-10 06:58:00,40.2,39.7,30.22,NE,49,0.0,1.0,98,0.00,,,0.01,Wunderground v.1.15,2013-10-10 10:58:00,
2013-10-10 06:59:00,40.2,39.7,30.22,NE,49,0.0,1.0,98,0.00,,,0.01,Wunderground v.1.15,2013-10-10 10:59:00,
2013-10-10 07:00:00,40.2,39.9,30.21,NE,49,0.0,1.0,99,0.00,,,0.01,Wunderground v.1.15,2013-10-10 11:00:00,
2013-10-10 07:01:00,40.3,40.0,30.22,NE,49,0.0,1.0,99,0.00,,,0.01,Wunderground v.1.15,2013-10-10 11:01:00,
2013-10-10 07:03:00,40.2,39.9,30.21,NE,49,0.0,1.0,99,0.00,,,0.01,Wunderground v.1.15,2013-10-10 11:03:00,
2013-10-10 07:06:00,40.3,40.0,30.22,NE,49,0.0,1.0,99,0.00,,,0.01,Wunderground v.1.15,2013-10-10 11:06:00,
2013-10-10 07:08:00,40.3,40.0,30.22,NE,49,0.0,1.0,99,0.00,,,0.01,Wunderground v.1.15,2013-10-10 11:08:00,
2013-10-10 07:09:00,40.3,40.0,30.22,NE,49,0.0,1.0,99,0.00,,,0.01,Wunderground v.1.15,2013-10-10 11:09:00,
2013-10-10 07:10:00,40.3,40.0,30.22,NE,49,0.0,1.0,99,0.00,,,0.01,Wunderground v.1.15,2013-10-10 11:10:00,
2013-10-10 07:12:00,40.4,40.1,30.22,NE,49,0.0,1.0,99,0.00,,,0.01,Wunderground v.1.15,2013-10-10 11:12:00,
2013-10-10 07:15:00,40.4,40.1,30.22,NE,49,0.0,1.0,99,0.00,,,0.01,Wunderground v.1.15,2013-10-10 11:15:00,
2013-10-10 07:18:00,40.4,40.1,30.22,NE,49,0.0,1.0,99,0.00,,,0.01,Wunderground v.1.15,2013-10-10 11:18:00,
2013-10-10 07:19:00,40.3,40.0,30.21,NE,49,0.0,1.0,99,0.00,,,0.01,Wunderground v.1.15,2013-10-10 11:19:00,
2013-10-10 07:20:00,40.2,39.9,30.21,NE,49,0.0,1.0,99,0.00,,,0.01,Wunderground v.1.15,2013-10-10 11:20:00,
2013-10-10 07:23:00,40.0,39.5,30.21,NE,49,0.0,1.0,98,0.00,,,0.01,Wunderground v.1.15,2013-10-10 11:23:00,
2013-10-10 07:24:00,40.0,39.5,30.21,NNW,337,0.0,1.0,98,0.00,,,0.01,Wunderground v.1.15,2013-10-10 11:24:00,
2013-10-10 07:25:00,39.9,39.6,30.21,NNW,337,0.0,1.0,99,0.00,,,0.01,Wunderground v.1.15,2013-10-10 11:25:00,
2013-10-10 07:29:00,39.8,39.5,30.22,NNW,337,0.0,1.0,99,0.00,,,0.01,Wunderground v.1.15,2013-10-10 11:29:00,
2013-10-10 07:30:00,39.8,39.5,30.22,NNW,337,0.0,1.0,99,0.00,,,0.01,Wunderground v.1.15,2013-10-10 11:30:00,
2013-10-10 07:31:00,39.7,39.4,30.22,NNW,337,0.0,1.0,99,0.00,,,0.01,Wunderground v.1.15,2013-10-10 11:31:00,
2013-10-10 07:34:00,39.6,39.1,30.22,NNW,337,0.0,1.0,98,0.00,,,0.01,Wunderground v.1.15,2013-10-10 11:34:00,
2013-10-10 07:36:00,39.5,39.0,30.22,NNW,337,0.0,1.0,98,0.00,,,0.01,Wunderground v.1.15,2013-10-10 11:36:00,
2013-10-10 07:37:00,39.5,39.0,30.21,NNW,337,0.0,1.0,98,0.00,,,0.01,Wunderground v.1.15,2013-10-10 11:37:00,
2013-10-10 07:39:00,39.4,38.9,30.22,NNW,332,0.0,4.0,98,0.00,,,0.01,Wunderground v.1.15,2013-10-10 11:39:00,
2013-10-10 07:41:00,39.4,38.9,30.22,NNW,332,0.0,1.0,98,0.00,,,0.01,Wunderground v.1.15,2013-10-10 11:41:00,
2013-10-10 07:42:00,39.4,38.9,30.22,NNW,332,0.0,1.0,98,0.00,,,0.01,Wunderground v.1.15,2013-10-10 11:42:00,
2013-10-10 07:44:00,39.4,38.9,30.21,NE,42,0.0,2.0,98,0.00,,,0.01,Wunderground v.1.15,2013-10-10 11:44:00,
2013-10-10 07:45:00,39.4,38.9,30.22,NE,42,1.0,2.0,98,0.00,,,0.01,Wunderground v.1.15,2013-10-10 11:45:00,
2013-10-10 07:46:00,39.3,39.0,30.21,NE,42,0.0,2.0,99,0.00,,,0.01,Wunderground v.1.15,2013-10-10 11:46:00,
2013-10-10 07:50:00,39.3,39.0,30.22,North,5,0.0,1.0,99,0.00,,,0.01,Wunderground v.1.15,2013-10-10 11:50:00,
2013-10-10 07:51:00,39.3,39.0,30.22,North,5,0.0,1.0,99,0.00,,,0.01,Wunderground v.1.15,2013-10-10 11:51:00,
2013-10-10 07:52:00,39.3,39.0,30.22,North,5,0.0,1.0,99,0.00,,,0.01,Wunderground v.1.15,2013-10-10 11:52:00,
2013-10-10 07:53:00,39.3,39.0,30.22,North,5,0.0,1.0,99,0.00,,,0.01,Wunderground v.1.15,2013-10-10 11:53:00,
2013-10-10 07:55:00,39.4,39.1,30.22,NNW,330,0.0,2.0,99,0.00,,,0.01,Wunderground v.1.15,2013-10-10 11:55:00,
2013-10-10 07:58:00,39.5,39.2,30.22,WNW,302,1.0,2.0,99,0.00,,,0.01,Wunderground v.1.15,2013-10-10 11:58:00,
2013-10-10 07:59:00,39.6,39.3,30.22,WNW,302,0.0,2.0,99,0.00,,,0.01,Wunderground v.1.15,2013-10-10 11:59:00,
2013-10-10 08:00:00,39.7,39.4,30.22,WNW,302,1.0,1.0,99,0.00,,,0.01,Wunderground v.1.15,2013-10-10 12:00:00,
2013-10-10 08:01:00,39.7,39.4,30.21,WNW,302,1.0,1.0,99,0.00,,,0.01,Wunderground v.1.15,2013-10-10 12:01:00,
2013-10-10 08:03:00,39.9,39.6,30.22,WNW,302,1.0,1.0,99,0.00,,,0.01,Wunderground v.1.15,2013-10-10 12:03:00,
2013-10-10 08:04:00,40.0,39.7,30.22,WNW,302,1.0,1.0,99,0.00,,,0.01,Wunderground v.1.15,2013-10-10 12:04:00,
2013-10-10 08:05:00,40.1,39.8,30.22,WNW,302,1.0,1.0,99,0.00,,,0.01,Wunderground v.1.15,2013-10-10 12:05:00,
2013-10-10 08:08:00,40.3,40.0,30.21,WNW,302,0.0,1.0,99,0.00,,,0.01,Wunderground v.1.15,2013-10-10 12:08:00,
2013-10-10 08:11:00,40.6,40.3,30.22,WNW,302,0.0,1.0,99,0.00,,,0.01,Wunderground v.1.15,2013-10-10 12:11:00,
2013-10-10 08:12:00,40.6,40.3,30.22,WNW,302,0.0,1.0,99,0.00,,,0.01,Wunderground v.1.15,2013-10-10 12:12:00,
2013-10-10 08:15:00,40.6,40.3,30.22,WNW,302,0.0,1.0,99,0.00,,,0.01,Wunderground v.1.15,2013-10-10 12:15:00,
2013-10-10 08:18:00,40.9,40.6,30.22,WNW,302,0.0,1.0,99,0.00,,,0.01,Wunderground v.1.15,2013-10-10 12:18:00,
2013-10-10 08:20:00,41.0,40.7,30.22,WNW,302,0.0,1.0,99,0.00,,,0.01,Wunderground v.1.15,2013-10-10 12:20:00,
2013-10-10 08:22:00,41.3,41.0,30.22,WNW,302,0.0,1.0,99,0.00,,,0.01,Wunderground v.1.15,2013-10-10 12:22:00,
2013-10-10 08:23:00,41.5,41.2,30.22,WNW,302,0.0,1.0,99,0.00,,,0.01,Wunderground v.1.15,2013-10-10 12:23:00,
2013-10-10 08:26:00,42.0,41.7,30.22,WNW,302,0.0,1.0,99,0.00,,,0.01,Wunderground v.1.15,2013-10-10 12:26:00,
2013-10-10 08:27:00,42.2,41.9,30.22,WNW,302,0.0,1.0,99,0.00,,,0.01,Wunderground v.1.15,2013-10-10 12:27:00,
2013-10-10 08:28:00,42.3,42.0,30.22,WNW,302,0.0,1.0,99,0.00,,,0.01,Wunderground v.1.15,2013-10-10 12:28:00,
2013-10-10 08:29:00,42.4,42.1,30.22,WNW,302,0.0,1.0,99,0.00,,,0.01,Wunderground v.1.15,2013-10-10 12:29:00,
2013-10-10 08:30:00,42.5,42.2,30.22,WNW,302,0.0,1.0,99,0.00,,,0.01,Wunderground v.1.15,2013-10-10 12:30:00,
2013-10-10 08:31:00,42.6,42.3,30.22,WNW,302,0.0,1.0,99,0.00,,,0.01,Wunderground v.1.15,2013-10-10 12:31:00,
2013-10-10 08:34:00,43.1,42.8,30.22,WNW,302,0.0,1.0,99,0.00,,,0.01,Wunderground v.1.15,2013-10-10 12:34:00,
2013-10-10 08:36:00,43.5,43.2,30.22,WNW,302,0.0,2.0,99,0.00,,,0.01,Wunderground v.1.15,2013-10-10 12:36:00,
2013-10-10 08:38:00,43.9,43.6,30.22,WNW,298,1.0,2.0,99,0.00,,,0.01,Wunderground v.1.15,2013-10-10 12:38:00,
2013-10-10 08:39:00,44.1,43.8,30.22,WNW,298,1.0,2.0,99,0.00,,,0.01,Wunderground v.1.15,2013-10-10 12:39:00,
2013-10-10 08:40:00,44.2,43.9,30.22,WNW,298,1.0,1.0,99,0.00,,,0.01,Wunderground v.1.15,2013-10-10 12:40:00,
2013-10-10 08:41:00,44.3,44.0,30.22,WNW,298,1.0,1.0,99,0.00,,,0.01,Wunderground v.1.15,2013-10-10 12:41:00,
2013-10-10 08:45:00,44.7,44.4,30.22,WNW,298,1.0,2.0,99,0.00,,,0.01,Wunderground v.1.15,2013-10-10 12:45:00,
2013-10-10 08:46:00,44.8,44.5,30.22,WNW,298,1.0,2.0,99,0.00,,,0.01,Wunderground v.1.15,2013-10-10 12:46:00,
2013-10-10 08:47:00,45.0,44.7,30.22,WNW,298,1.0,2.0,99,0.00,,,0.01,Wunderground v.1.15,2013-10-10 12:47:00,
2013-10-10 08:50:00,45.4,45.1,30.22,WNW,298,1.0,1.0,99,0.00,,,0.01,Wunderground v.1.15,2013-10-10 12:50:00,
2013-10-10 08:52:00,45.6,45.3,30.22,WNW,298,0.0,1.0,99,0.00,,,0.01,Wunderground v.1.15,2013-10-10 12:52:00,
2013-10-10 08:53:00,45.8,45.5,30.22,WNW,298,0.0,1.0,99,0.00,,,0.01,Wunderground v.1.15,2013-10-10 12:53:00,
2013-10-10 08:56:00,46.2,45.9,30.22,WNW,298,0.0,1.0,99,0.00,,,0.01,Wunderground v.1.15,2013-10-10 12:56:00,
2013-10-10 08:58:00,46.8,46.5,30.22,WNW,298,0.0,1.0,99,0.00,,,0.01,Wunderground v.1.15,2013-10-10 12:58:00,
2013-10-10 08:59:00,47.0,46.7,30.22,WNW,298,0.0,1.0,99,0.00,,,0.01,Wunderground v.1.15,2013-10-10 12:59:00,
2013-10-10 09:01:00,47.3,47.0,30.22,WNW,298,0.0,1.0,99,0.00,,,0.01,Wunderground v.1.15,2013-10-10 13:01:00,
2013-10-10 09:02:00,47.4,47.1,30.22,WNW,298,0.0,1.0,99,0.00,,,0.01,Wunderground v.1.15,2013-10-10 13:02:00,
2013-10-10 09:06:00,47.9,47.6,30.22,WNW,298,1.0,1.0,99,0.00,,,0.01,Wunderground v.1.15,2013-10-10 13:06:00,
2013-10-10 09:07:00,48.1,47.8,30.22,WNW,298,1.0,1.0,99,0.00,,,0.01,Wunderground v.1.15,2013-10-10 13:07:00,
2013-10-10 09:08:00,48.2,47.9,30.22,WNW,284,1.0,2.0,99,0.00,,,0.01,Wunderground v.1.15,2013-10-10 13:08:00,
2013-10-10 09:12:00,48.8,48.8,30.22,SSW,209,1.0,1.0,100,0.00,,,0.01,Wunderground v.1.15,2013-10-10 13:12:00,
2013-10-10 09:13:00,49.0,49.0,30.22,SSW,207,1.0,1.0,100,0.00,,,0.01,Wunderground v.1.15,2013-10-10 13:13:00,
2013-10-10 09:14:00,49.1,48.8,30.22,SSW,193,1.0,1.0,99,0.00,,,0.01,Wunderground v.1.15,2013-10-10 13:14:00,
2013-10-10 09:15:00,49.2,48.9,30.22,SSW,193,1.0,1.0,99,0.00,,,0.01,Wunderground v.1.15,2013-10-10 13:15:00,
2013-10-10 09:18:00,49.7,49.4,30.22,SSW,193,1.0,1.0,99,0.00,,,0.01,Wunderground v.1.15,2013-10-10 13:18:00,
2013-10-10 09:19:00,49.9,49.6,30.22,SSW,193,1.0,1.0,99,0.00,,,0.01,Wunderground v.1.15,2013-10-10 13:19:00,
2013-10-10 09:20:00,50.1,50.1,30.22,SSW,192,1.0,3.0,100,0.00,,,0.01,Wunderground v.1.15,2013-10-10 13:20:00,
2013-10-10 09:24:00,50.5,50.5,30.22,South,187,1.0,5.0,100,0.00,,,0.01,Wunderground v.1.15,2013-10-10 13:24:00,
2013-10-10 09:25:00,50.5,50.5,30.22,South,187,1.0,5.0,100,0.00,,,0.01,Wunderground v.1.15,2013-10-10 13:25:00,
2013-10-10 09:26:00,50.6,50.6,30.22,South,187,1.0,5.0,100,0.00,,,0.01,Wunderground v.1.15,2013-10-10 13:26:00,
2013-10-10 09:28:00,50.9,50.6,30.22,South,187,2.0,5.0,99,0.00,,,0.01,Wunderground v.1.15,2013-10-10 13:28:00,
2013-10-10 09:30:00,51.3,51.3,30.22,South,186,2.0,2.0,100,0.00,,,0.01,Wunderground v.1.15,2013-10-10 13:30:00,
2013-10-10 09:31:00,51.5,51.2,30.22,South,186,2.0,2.0,99,0.00,,,0.01,Wunderground v.1.15,2013-10-10 13:31:00,
2013-10-10 09:32:00,51.8,51.8,30.22,South,186,2.0,2.0,100,0.00,,,0.01,Wunderground v.1.15,2013-10-10 13:32:00,
2013-10-10 09:35:00,52.3,52.3,30.22,South,187,1.0,6.0,100,0.00,,,0.01,Wunderground v.1.15,2013-10-10 13:35:00,
2013-10-10 09:36:00,52.4,52.4,30.22,South,187,1.0,6.0,100,0.00,,,0.01,Wunderground v.1.15,2013-10-10 13:36:00,
2013-10-10 09:37:00,52.5,52.5,30.22,South,187,2.0,6.0,100,0.00,,,0.01,Wunderground v.1.15,2013-10-10 13:37:00,
2013-10-10 09:38:00,52.6,52.3,30.22,South,187,1.0,6.0,99,0.00,,,0.01,Wunderground v.1.15,2013-10-10 13:38:00,
2013-10-10 09:41:00,53.0,52.7,30.22,South,187,1.0,1.0,99,0.00,,,0.01,Wunderground v.1.15,2013-10-10 13:41:00,
2013-10-10 09:42:00,53.1,52.8,30.22,South,188,1.0,3.0,99,0.00,,,0.01,Wunderground v.1.15,2013-10-10 13:42:00,
2013-10-10 09:43:00,53.1,52.8,30.22,South,189,1.0,3.0,99,0.00,,,0.01,Wunderground v.1.15,2013-10-10 13:43:00,
2013-10-10 09:47:00,53.6,52.8,30.22,South,189,1.0,3.0,97,0.00,,,0.01,Wunderground v.1.15,2013-10-10 13:47:00,
2013-10-10 09:48:00,53.7,52.6,30.22,South,189,2.0,3.0,96,0.00,,,0.01,Wunderground v.1.15,2013-10-10 13:48:00,
2013-10-10 09:49:00,53.8,52.4,30.22,South,189,2.0,3.0,95,0.00,,,0.01,Wunderground v.1.15,2013-10-10 13:49:00,
2013-10-10 09:51:00,54.1,52.7,30.22,South,189,2.0,2.0,95,0.00,,,0.01,Wunderground v.1.15,2013-10-10 13:51:00,
2013-10-10 09:53:00,54.4,53.0,30.22,South,189,1.0,2.0,95,0.00,,,0.01,Wunderground v.1.15,2013-10-10 13:53:00,
2013-10-10 09:54:00,54.5,53.1,30.22,South,189,1.0,2.0,95,0.00,,,0.01,Wunderground v.1.15,2013-10-10 13:54:00,
2013-10-10 09:55:00,54.7,53.3,30.22,South,189,1.0,2.0,95,0.00,,,0.01,Wunderground v.1.15,2013-10-10 13:55:00,
2013-10-10 09:56:00,54.8,53.1,30.22,East,85,1.0,4.0,94,0.00,,,0.01,Wunderground v.1.15,2013-10-10 13:56:00,
2013-10-10 09:59:00,55.9,53.0,30.22,SW,217,1.0,7.0,90,0.00,,,0.01,Wunderground v.1.15,2013-10-10 13:59:00,
2013-10-10 10:00:00,56.2,53.3,30.22,NW,306,2.0,5.0,90,0.00,,,0.01,Wunderground v.1.15,2013-10-10 14:00:00,
2013-10-10 10:01:00,56.5,53.6,30.21,West,260,2.0,5.0,90,0.00,,,0.01,Wunderground v.1.15,2013-10-10 14:01:00,
2013-10-10 10:02:00,56.8,53.9,30.22,West,273,2.0,5.0,90,0.00,,,0.01,Wunderground v.1.15,2013-10-10 14:02:00,
2013-10-10 10:05:00,57.3,53.8,30.21,NNW,338,3.0,5.0,88,0.00,,,0.01,Wunderground v.1.15,2013-10-10 14:05:00,
2013-10-10 10:06:00,57.4,53.9,30.21,NNW,338,3.0,5.0,88,0.00,,,0.01,Wunderground v.1.15,2013-10-10 14:06:00,
2013-10-10 10:10:00,58.4,53.3,30.21,NNW,343,2.0,7.0,83,0.00,,,0.01,Wunderground v.1.15,2013-10-10 14:10:00,
2013-10-10 10:11:00,58.7,53.2,30.21,NNW,335,2.0,7.0,82,0.00,,,0.01,Wunderground v.1.15,2013-10-10 14:11:00,
2013-10-10 10:12:00,58.9,53.1,30.21,NNW,334,2.0,7.0,81,0.00,,,0.01,Wunderground v.1.15,2013-10-10 14:12:00,
2013-10-10 10:14:00,59.4,52.5,30.21,NNW,346,2.0,8.0,78,0.00,,,0.01,Wunderground v.1.15,2013-10-10 14:14:00,
2013-10-10 10:15:00,59.6,53.4,30.21,NNW,329,3.0,8.0,80,0.00,,,0.01,Wunderground v.1.15,2013-10-10 14:15:00,
2013-10-10 10:18:00,60.2,53.7,30.21,WNW,303,4.0,8.0,79,0.00,,,0.01,Wunderground v.1.15,2013-10-10 14:18:00,
2013-10-10 10:19:00,60.3,53.1,30.21,NNE,13,4.0,8.0,77,0.00,,,0.01,Wunderground v.1.15,2013-10-10 14:19:00,
2013-10-10 10:22:00,60.7,53.1,30.21,NNE,15,5.0,9.0,76,0.00,,,0.01,Wunderground v.1.15,2013-10-10 14:22:00,
2013-10-10 10:24:00,61.1,53.1,30.21,WNW,290,5.0,9.0,75,0.00,,,0.01,Wunderground v.1.15,2013-10-10 14:24:00,
2013-10-10 10:25:00,61.2,53.2,30.21,NNW,329,5.0,9.0,75,0.00,,,0.01,Wunderground v.1.15,2013-10-10 14:25:00,
2013-10-10 10:27:00,61.4,53.4,30.21,NNW,340,5.0,9.0,75,0.00,,,0.01,Wunderground v.1.15,2013-10-10 14:27:00,
2013-10-10 10:29:00,61.5,52.8,30.21,NW,320,6.0,12.0,73,0.00,,,0.01,Wunderground v.1.15,2013-10-10 14:29:00,
2013-10-10 10:30:00,61.6,52.9,30.21,NNW,342,6.0,9.0,73,0.00,,,0.01,Wunderground v.1.15,2013-10-10 14:30:00,
2013-10-10 10:32:00,61.7,53.0,30.21,NW,311,6.0,9.0,73,0.00,,,0.01,Wunderground v.1.15,2013-10-10 14:32:00,
2013-10-10 10:33:00,61.7,53.3,30.21,NNE,23,6.0,9.0,74,0.00,,,0.01,Wunderground v.1.15,2013-10-10 14:33:00,
2013-10-10 10:35:00,61.9,52.4,30.21,North,5,6.0,9.0,71,0.00,,,0.01,Wunderground v.1.15,2013-10-10 14:35:00,
2013-10-10 10:36:00,62.0,52.9,30.21,North,355,6.0,9.0,72,0.00,,,0.01,Wunderground v.1.15,2013-10-10 14:36:00,
2013-10-10 10:37:00,62.0,52.9,30.21,SW,227,6.0,9.0,72,0.00,,,0.01,Wunderground v.1.15,2013-10-10 14:37:00,
2013-10-10 10:38:00,62.1,53.0,30.21,NNE,32,5.0,9.0,72,0.00,,,0.01,Wunderground v.1.15,2013-10-10 14:38:00,
2013-10-10 10:39:00,62.2,53.4,30.21,NW,318,5.0,9.0,73,0.00,,,0.01,Wunderground v.1.15,2013-10-10 14:39:00,
2013-10-10 10:40:00,62.3,52.4,30.21,North,5,5.0,8.0,70,0.00,,,0.01,Wunderground v.1.15,2013-10-10 14:40:00,
2013-10-10 10:43:00,62.4,52.5,30.21,North,5,6.0,8.0,70,0.00,,,0.01,Wunderground v.1.15,2013-10-10 14:43:00,
2013-10-10 10:44:00,62.5,53.0,30.21,WNW,298,5.0,8.0,71,0.00,,,0.01,Wunderground v.1.15,2013-10-10 14:44:00,
2013-10-10 10:45:00,62.5,52.2,30.21,NW,322,5.0,10.0,69,0.00,,,0.01,Wunderground v.1.15,2013-10-10 14:45:00,
2013-10-10 10:46:00,62.5,52.2,30.21,WNW,303,5.0,12.0,69,0.00,,,0.01,Wunderground v.1.15,2013-10-10 14:46:00,
2013-10-10 10:47:00,62.6,52.3,30.21,NW,326,6.0,12.0,69,0.00,,,0.01,Wunderground v.1.15,2013-10-10 14:47:00,
2013-10-10 10:52:00,62.6,51.9,30.21,WNW,299,7.0,9.0,68,0.00,,,0.01,Wunderground v.1.15,2013-10-10 14:52:00,
2013-10-10 10:53:00,62.6,51.9,30.21,NNW,338,7.0,9.0,68,0.00,,,0.01,Wunderground v.1.15,2013-10-10 14:53:00,
2013-10-10 10:54:00,62.6,51.9,30.21,NNW,329,8.0,9.0,68,0.00,,,0.01,Wunderground v.1.15,2013-10-10 14:54:00,
2013-10-10 10:57:00,62.7,52.8,30.21,NNW,337,7.0,9.0,70,0.00,,,0.01,Wunderground v.1.15,2013-10-10 14:57:00,
2013-10-10 10:58:00,62.8,52.5,30.21,NW,321,7.0,9.0,69,0.00,,,0.01,Wunderground v.1.15,2013-10-10 14:58:00,
2013-10-10 10:59:00,63.0,53.1,30.21,NNW,336,7.0,9.0,70,0.00,,,0.01,Wunderground v.1.15,2013-10-10 14:59:00,
2013-10-10 11:00:00,63.0,52.3,30.21,North,355,7.0,11.0,68,0.00,,,0.01,Wunderground v.1.15,2013-10-10 15:00:00,
2013-10-10 11:04:00,63.3,53.0,30.21,NW,309,7.0,11.0,69,0.00,,,0.01,Wunderground v.1.15,2013-10-10 15:04:00,
2013-10-10 11:05:00,63.3,53.0,30.21,NNW,329,7.0,11.0,69,0.00,,,0.01,Wunderground v.1.15,2013-10-10 15:05:00,
2013-10-10 11:06:00,63.4,52.7,30.21,NW,310,6.0,11.0,68,0.00,,,0.01,Wunderground v.1.15,2013-10-10 15:06:00,
2013-10-10 11:07:00,63.4,52.2,30.21,North,355,7.0,11.0,67,0.00,,,0.01,Wunderground v.1.15,2013-10-10 15:07:00,
2013-10-10 11:08:00,63.4,52.2,30.21,West,265,7.0,11.0,67,0.00,,,0.01,Wunderground v.1.15,2013-10-10 15:08:00,
2013-10-10 11:10:00,63.4,52.7,30.21,WNW,283,7.0,7.0,68,0.00,,,0.01,Wunderground v.1.15,2013-10-10 15:10:00,
2013-10-10 11:11:00,63.5,53.1,30.21,NNE,13,7.0,8.0,69,0.00,,,0.01,Wunderground v.1.15,2013-10-10 15:11:00,
2013-10-10 11:13:00,63.6,52.4,30.21,NNW,327,7.0,8.0,67,0.00,,,0.01,Wunderground v.1.15,2013-10-10 15:13:00,
2013-10-10 11:14:00,63.6,52.0,30.21,WNW,302,7.0,8.0,66,0.00,,,0.01,Wunderground v.1.15,2013-10-10 15:14:00,
2013-10-10 11:15:00,63.7,52.5,30.21,North,350,7.0,8.0,67,0.00,,,0.01,Wunderground v.1.15,2013-10-10 15:15:00,
2013-10-10 11:16:00,63.7,52.1,30.21,NNW,344,7.0,8.0,66,0.00,,,0.01,Wunderground v.1.15,2013-10-10 15:16:00,
2013-10-10 11:18:00,63.8,52.6,30.21,NNW,344,6.0,8.0,67,0.00,,,0.01,Wunderground v.1.15,2013-10-10 15:18:00,
2013-10-10 11:19:00,63.9,53.1,30.21,NNW,333,6.0,8.0,68,0.00,,,0.01,Wunderground v.1.15,2013-10-10 15:19:00,
2013-10-10 11:20:00,64.0,53.2,30.21,WNW,302,6.0,6.0,68,0.00,,,0.01,Wunderground v.1.15,2013-10-10 15:20:00,
2013-10-10 11:22:00,64.1,52.1,30.21,NNW,344,6.0,8.0,65,0.00,,,0.01,Wunderground v.1.15,2013-10-10 15:22:00,
2013-10-10 11:24:00,64.2,52.2,30.21,NW,319,5.0,12.0,65,0.00,,,0.01,Wunderground v.1.15,2013-10-10 15:24:00,
2013-10-10 11:26:00,64.2,52.2,30.20,NW,317,6.0,12.0,65,0.00,,,0.01,Wunderground v.1.15,2013-10-10 15:26:00,
2013-10-10 11:27:00,64.3,52.7,30.20,NNW,330,6.0,12.0,66,0.00,,,0.01,Wunderground v.1.15,2013-10-10 15:27:00,
2013-10-10 11:29:00,64.4,52.4,30.20,NNW,346,6.0,12.0,65,0.00,,,0.01,Wunderground v.1.15,2013-10-10 15:29:00,
2013-10-10 11:30:00,64.4,52.4,30.20,WNW,285,7.0,7.0,65,0.00,,,0.01,Wunderground v.1.15,2013-10-10 15:30:00,
2013-10-10 11:31:00,64.4,52.0,30.20,WNW,295,7.0,7.0,64,0.00,,,0.01,Wunderground v.1.15,2013-10-10 15:31:00,
2013-10-10 11:33:00,64.6,52.6,30.20,North,360,7.0,11.0,65,0.00,,,0.01,Wunderground v.1.15,2013-10-10 15:33:00,
2013-10-10 11:35:00,64.7,52.7,30.20,NNW,341,6.0,11.0,65,0.00,,,0.01,Wunderground v.1.15,2013-10-10 15:35:00,
2013-10-10 11:37:00,64.9,52.4,30.20,North,5,6.0,11.0,64,0.00,,,0.01,Wunderground v.1.15,2013-10-10 15:37:00,
2013-10-10 11:38:00,64.9,52.4,30.20,NW,315,6.0,11.0,64,0.00,,,0.01,Wunderground v.1.15,2013-10-10 15:38:00,
2013-10-10 11:43:00,65.0,52.1,30.20,North,5,6.0,8.0,63,0.00,,,0.01,Wunderground v.1.15,2013-10-10 15:43:00,
2013-10-10 11:44:00,65.0,51.7,30.20,North,355,6.0,8.0,62,0.00,,,0.01,Wunderground v.1.15,2013-10-10 15:44:00,
2013-10-10 11:45:00,65.1,52.2,30.21,NNW,336,6.0,8.0,63,0.00,,,0.01,Wunderground v.1.15,2013-10-10 15:45:00,
2013-10-10 11:46:00,65.2,52.7,30.21,NW,317,6.0,8.0,64,0.00,,,0.01,Wunderground v.1.15,2013-10-10 15:46:00,
2013-10-10 11:49:00,65.3,51.9,30.21,NNW,331,6.0,8.0,62,0.00,,,0.01,Wunderground v.1.15,2013-10-10 15:49:00,
2013-10-10 11:50:00,65.3,51.9,30.20,North,355,5.0,5.0,62,0.00,,,0.01,Wunderground v.1.15,2013-10-10 15:50:00,
2013-10-10 11:51:00,65.3,51.9,30.20,NNE,24,6.0,6.0,62,0.00,,,0.01,Wunderground v.1.15,2013-10-10 15:51:00,
2013-10-10 11:52:00,65.3,51.5,30.20,NW,309,6.0,6.0,61,0.00,,,0.01,Wunderground v.1.15,2013-10-10 15:52:00,
2013-10-10 11:55:00,65.4,51.6,30.20,NW,313,6.0,11.0,61,0.00,,,0.01,Wunderground v.1.15,2013-10-10 15:55:00,
2013-10-10 11:58:00,65.4,52.0,30.20,NW,326,7.0,11.0,62,0.00,,,0.01,Wunderground v.1.15,2013-10-10 15:58:00,
2013-10-10 11:59:00,65.4,52.5,30.20,NW,314,7.0,11.0,63,0.00,,,0.01,Wunderground v.1.15,2013-10-10 15:59:00,
2013-10-10 12:00:00,65.3,51.1,30.20,NNW,346,7.0,7.0,60,0.00,,,0.01,Wunderground v.1.15,2013-10-10 16:00:00,
2013-10-10 12:03:00,65.3,51.5,30.20,WNW,286,7.0,9.0,61,0.00,,,0.01,Wunderground v.1.15,2013-10-10 16:03:00,
2013-10-10 12:05:00,65.3,51.5,30.20,NW,304,8.0,9.0,61,0.00,,,0.01,Wunderground v.1.15,2013-10-10 16:05:00,
2013-10-10 12:08:00,65.3,51.5,30.20,NNW,335,8.0,9.0,61,0.00,,,0.01,Wunderground v.1.15,2013-10-10 16:08:00,
2013-10-10 12:09:00,65.3,51.5,30.20,NNW,345,8.0,9.0,61,0.00,,,0.01,Wunderground v.1.15,2013-10-10 16:09:00,
2013-10-10 12:12:00,65.3,51.5,30.20,NNW,346,8.0,8.0,61,0.00,,,0.01,Wunderground v.1.15,2013-10-10 16:12:00,
2013-10-10 12:13:00,65.3,51.5,30.20,NW,314,8.0,8.0,61,0.00,,,0.01,Wunderground v.1.15,2013-10-10 16:13:00,
2013-10-10 12:17:00,65.5,52.6,30.20,North,5,7.0,8.0,63,0.00,,,0.01,Wunderground v.1.15,2013-10-10 16:17:00,
2013-10-10 12:18:00,65.6,52.2,30.20,North,360,7.0,8.0,62,0.00,,,0.01,Wunderground v.1.15,2013-10-10 16:18:00,
2013-10-10 12:19:00,65.7,52.8,30.20,WNW,300,7.0,8.0,63,0.00,,,0.01,Wunderground v.1.15,2013-10-10 16:19:00,
2013-10-10 12:22:00,65.9,52.5,30.20,North,360,6.0,8.0,62,0.00,,,0.01,Wunderground v.1.15,2013-10-10 16:22:00,
2013-10-10 12:24:00,65.8,51.5,30.20,NW,323,6.0,8.0,60,0.00,,,0.01,Wunderground v.1.15,2013-10-10 16:24:00,
2013-10-10 12:25:00,65.8,52.0,30.20,North,10,6.0,8.0,61,0.00,,,0.01,Wunderground v.1.15,2013-10-10 16:25:00,
2013-10-10 12:27:00,65.8,52.0,30.20,NNW,340,7.0,10.0,61,0.00,,,0.01,Wunderground v.1.15,2013-10-10 16:27:00,
2013-10-10 12:28:00,65.8,51.5,30.20,NW,308,7.0,10.0,60,0.00,,,0.01,Wunderground v.1.15,2013-10-10 16:28:00,
2013-10-10 12:29:00,65.8,51.5,30.20,North,5,7.0,10.0,60,0.00,,,0.01,Wunderground v.1.15,2013-10-10 16:29:00,
2013-10-10 12:32:00,65.9,52.1,30.19,NNW,338,8.0,11.0,61,0.00,,,0.01,Wunderground v.1.15,2013-10-10 16:32:00,
2013-10-10 12:33:00,65.9,51.6,30.20,North,5,8.0,11.0,60,0.00,,,0.01,Wunderground v.1.15,2013-10-10 16:33:00,
2013-10-10 12:35:00,65.9,51.6,30.20,NW,321,8.0,11.0,60,0.00,,,0.01,Wunderground v.1.15,2013-10-10 16:35:00,
2013-10-10 12:39:00,66.1,52.3,30.19,West,269,7.0,11.0,61,0.00,,,0.01,Wunderground v.1.15,2013-10-10 16:39:00,
2013-10-10 12:41:00,66.2,53.2,30.19,NW,308,7.0,7.0,63,0.00,,,0.01,Wunderground v.1.15,2013-10-10 16:41:00,
2013-10-10 12:43:00,66.3,51.5,30.19,NNW,329,6.0,11.0,59,0.00,,,0.01,Wunderground v.1.15,2013-10-10 16:43:00,
2013-10-10 12:44:00,66.4,52.5,30.19,NW,325,7.0,11.0,61,0.00,,,0.01,Wunderground v.1.15,2013-10-10 16:44:00,
2013-10-10 12:45:00,66.3,52.4,30.19,North,355,7.0,11.0,61,0.00,,,0.01,Wunderground v.1.15,2013-10-10 16:45:00,
2013-10-10 12:47:00,66.4,52.1,30.19,North,5,6.0,11.0,60,0.00,,,0.01,Wunderground v.1.15,2013-10-10 16:47:00,
2013-10-10 12:48:00,66.5,51.7,30.19,NNW,335,7.0,11.0,59,0.00,,,0.01,Wunderground v.1.15,2013-10-10 16:48:00,
2013-10-10 12:50:00,66.7,52.4,30.19,North,349,6.0,9.0,60,0.00,,,0.01,Wunderground v.1.15,2013-10-10 16:50:00,
2013-10-10 12:52:00,66.6,52.3,30.19,NW,321,7.0,9.0,60,0.00,,,0.01,Wunderground v.1.15,2013-10-10 16:52:00,
2013-10-10 12:53:00,66.5,51.3,30.19,NNW,339,7.0,9.0,58,0.00,,,0.01,Wunderground v.1.15,2013-10-10 16:53:00,
2013-10-10 12:55:00,66.4,51.2,30.19,NW,320,7.0,11.0,58,0.00,,,0.01,Wunderground v.1.15,2013-10-10 16:55:00,
2013-10-10 12:56:00,66.4,51.6,30.19,NW,315,8.0,11.0,59,0.00,,,0.01,Wunderground v.1.15,2013-10-10 16:56:00,
2013-10-10 12:58:00,66.5,52.2,30.19,North,360,7.0,11.0,60,0.00,,,0.01,Wunderground v.1.15,2013-10-10 16:58:00,
2013-10-10 12:59:00,66.5,52.2,30.19,NNW,336,8.0,11.0,60,0.00,,,0.01,Wunderground v.1.15,2013-10-10 16:59:00,
2013-10-10 13:02:00,66.6,51.4,30.19,WNW,286,8.0,9.0,58,0.00,,,0.01,Wunderground v.1.15,2013-10-10 17:02:00,
2013-10-10 13:04:00,66.5,51.3,30.19,NW,325,7.0,10.0,58,0.00,,,0.01,Wunderground v.1.15,2013-10-10 17:04:00,
2013-10-10 13:05:00,66.5,51.3,30.19,NNW,338,7.0,10.0,58,0.00,,,0.01,Wunderground v.1.15,2013-10-10 17:05:00,
2013-10-10 13:06:00,66.5,51.7,30.18,NW,312,8.0,10.0,59,0.00,,,0.01,Wunderground v.1.15,2013-10-10 17:06:00,
2013-10-10 13:09:00,66.8,52.5,30.18,NNW,340,7.0,10.0,60,0.00,,,0.01,Wunderground v.1.15,2013-10-10 17:09:00,
2013-10-10 13:11:00,67.0,52.2,30.18,NW,310,7.0,8.0,59,0.00,,,0.01,Wunderground v.1.15,2013-10-10 17:11:00,
2013-10-10 13:12:00,67.1,51.8,30.18,NW,310,7.0,8.0,58,0.00,,,0.01,Wunderground v.1.15,2013-10-10 17:12:00,
2013-10-10 13:13:00,67.2,51.9,30.18,WNW,287,6.0,8.0,58,0.00,,,0.01,Wunderground v.1.15,2013-10-10 17:13:00,
2013-10-10 13:16:00,67.5,52.2,30.18,NW,321,5.0,10.0,58,0.00,,,0.01,Wunderground v.1.15,2013-10-10 17:16:00,
2013-10-10 13:17:00,67.5,51.7,30.18,WNW,303,5.0,10.0,57,0.00,,,0.01,Wunderground v.1.15,2013-10-10 17:17:00,
2013-10-10 13:20:00,67.5,52.7,30.18,NNE,23,5.0,6.0,59,0.00,,,0.01,Wunderground v.1.15,2013-10-10 17:20:00,
2013-10-10 13:21:00,67.6,51.8,30.18,NNE,21,5.0,6.0,57,0.00,,,0.01,Wunderground v.1.15,2013-10-10 17:21:00,
2013-10-10 13:25:00,67.9,53.5,30.18,WNW,302,6.0,7.0,60,0.00,,,0.01,Wunderground v.1.15,2013-10-10 17:25:00,
2013-10-10 13:26:00,67.9,54.0,30.18,NNW,327,6.0,7.0,61,0.00,,,0.01,Wunderground v.1.15,2013-10-10 17:26:00,
2013-10-10 13:29:00,68.1,54.1,30.18,NNW,344,5.0,7.0,61,0.00,,,0.01,Wunderground v.1.15,2013-10-10 17:29:00,
2013-10-10 13:30:00,68.1,54.1,30.18,West,281,6.0,7.0,61,0.00,,,0.01,Wunderground v.1.15,2013-10-10 17:30:00,
2013-10-10 13:32:00,68.3,54.8,30.18,NW,313,6.0,8.0,62,0.00,,,0.01,Wunderground v.1.15,2013-10-10 17:32:00,
2013-10-10 13:35:00,68.2,53.8,30.18,NW,306,6.0,11.0,60,0.00,,,0.01,Wunderground v.1.15,2013-10-10 17:35:00,
2013-10-10 13:36:00,68.1,53.2,30.18,West,280,6.0,11.0,59,0.00,,,0.01,Wunderground v.1.15,2013-10-10 17:36:00,
2013-10-10 13:37:00,68.0,53.1,30.17,WNW,297,6.0,11.0,59,0.00,,,0.01,Wunderground v.1.15,2013-10-10 17:37:00,
2013-10-10 13:39:00,67.9,53.5,30.17,NW,318,7.0,11.0,60,0.00,,,0.01,Wunderground v.1.15,2013-10-10 17:39:00,
2013-10-10 13:41:00,67.7,53.3,30.17,NW,318,7.0,10.0,60,0.00,,,0.01,Wunderground v.1.15,2013-10-10 17:41:00,
2013-10-10 13:42:00,67.7,53.3,30.17,North,355,7.0,10.0,60,0.00,,,0.01,Wunderground v.1.15,2013-10-10 17:42:00,
2013-10-10 13:46:00,67.7,53.3,30.17,North,355,8.0,10.0,60,0.00,,,0.01,Wunderground v.1.15,2013-10-10 17:46:00,
2013-10-10 13:49:00,67.6,53.2,30.17,NNW,334,8.0,12.0,60,0.00,,,0.01,Wunderground v.1.15,2013-10-10 17:49:00,
2013-10-10 13:52:00,67.7,53.8,30.17,NW,317,8.0,8.0,61,0.00,,,0.01,Wunderground v.1.15,2013-10-10 17:52:00,
2013-10-10 13:53:00,67.9,54.0,30.17,NNW,348,8.0,8.0,61,0.00,,,0.01,Wunderground v.1.15,2013-10-10 17:53:00,
2013-10-10 13:55:00,68.1,53.7,30.16,WNW,296,7.0,8.0,60,0.00,,,0.01,Wunderground v.1.15,2013-10-10 17:55:00,
2013-10-10 13:57:00,68.4,54.4,30.17,West,279,7.0,8.0,61,0.00,,,0.01,Wunderground v.1.15,2013-10-10 17:57:00,
2013-10-10 13:58:00,68.5,54.1,30.17,WNW,287,6.0,8.0,60,0.00,,,0.01,Wunderground v.1.15,2013-10-10 17:58:00,
2013-10-10 13:59:00,68.5,54.1,30.16,West,271,6.0,8.0,60,0.00,,,0.01,Wunderground v.1.15,2013-10-10 17:59:00,
2013-10-10 14:01:00,68.5,54.1,30.17,WNW,302,6.0,11.0,60,0.00,,,0.01,Wunderground v.1.15,2013-10-10 18:01:00,
2013-10-10 14:03:00,68.5,54.1,30.16,NNW,329,7.0,11.0,60,0.00,,,0.01,Wunderground v.1.15,2013-10-10 18:03:00,
2013-10-10 14:04:00,68.5,53.6,30.16,North,5,7.0,11.0,59,0.00,,,0.01,Wunderground v.1.15,2013-10-10 18:04:00,
2013-10-10 14:05:00,68.5,53.6,30.17,NNW,345,7.0,11.0,59,0.00,,,0.01,Wunderground v.1.15,2013-10-10 18:05:00,
2013-10-10 14:07:00,68.5,53.1,30.16,NW,321,8.0,11.0,58,0.00,,,0.01,Wunderground v.1.15,2013-10-10 18:07:00,
2013-10-10 14:08:00,68.4,53.0,30.16,NW,317,8.0,11.0,58,0.00,,,0.01,Wunderground v.1.15,2013-10-10 18:08:00,
2013-10-10 14:10:00,68.3,52.9,30.16,NNW,343,8.0,8.0,58,0.00,,,0.01,Wunderground v.1.15,2013-10-10 18:10:00,
2013-10-10 14:11:00,68.3,52.9,30.16,WNW,286,8.0,8.0,58,0.00,,,0.01,Wunderground v.1.15,2013-10-10 18:11:00,
2013-10-10 14:14:00,68.5,54.5,30.16,ENE,73,7.0,9.0,61,0.00,,,0.01,Wunderground v.1.15,2013-10-10 18:14:00,
2013-10-10 14:15:00,68.6,53.2,30.16,NW,312,7.0,9.0,58,0.00,,,0.01,Wunderground v.1.15,2013-10-10 18:15:00,
2013-10-10 14:16:00,68.6,53.2,30.16,WNW,293,7.0,9.0,58,0.00,,,0.01,Wunderground v.1.15,2013-10-10 18:16:00,
2013-10-10 14:18:00,68.6,53.7,30.16,NW,323,7.0,10.0,59,0.00,,,0.01,Wunderground v.1.15,2013-10-10 18:18:00,
2013-10-10 14:20:00,68.6,53.7,30.16,NE,36,6.0,8.0,59,0.00,,,0.01,Wunderground v.1.15,2013-10-10 18:20:00,
2013-10-10 14:22:00,68.6,53.7,30.16,NNW,327,7.0,8.0,59,0.00,,,0.01,Wunderground v.1.15,2013-10-10 18:22:00,
2013-10-10 14:24:00,68.7,53.3,30.15,WNW,300,6.0,8.0,58,0.00,,,0.01,Wunderground v.1.15,2013-10-10 18:24:00,
2013-10-10 14:27:00,68.9,54.4,30.15,NW,304,6.0,8.0,60,0.00,,,0.01,Wunderground v.1.15,2013-10-10 18:27:00,
2013-10-10 14:28:00,69.0,54.5,30.15,WNW,293,6.0,10.0,60,0.00,,,0.01,Wunderground v.1.15,2013-10-10 18:28:00,
2013-10-10 14:31:00,68.9,53.5,30.15,NNW,339,6.0,6.0,58,0.00,,,0.01,Wunderground v.1.15,2013-10-10 18:31:00,
2013-10-10 14:32:00,68.9,53.5,30.15,NW,311,6.0,11.0,58,0.00,,,0.01,Wunderground v.1.15,2013-10-10 18:32:00,
2013-10-10 14:33:00,68.8,53.4,30.15,WNW,286,6.0,11.0,58,0.00,,,0.01,Wunderground v.1.15,2013-10-10 18:33:00,
2013-10-10 14:35:00,68.9,54.9,30.15,WNW,302,7.0,11.0,61,0.00,,,0.01,Wunderground v.1.15,2013-10-10 18:35:00,
2013-10-10 14:37:00,69.1,54.2,30.15,WNW,302,7.0,11.0,59,0.00,,,0.01,Wunderground v.1.15,2013-10-10 18:37:00,
2013-10-10 14:38:00,69.1,55.1,30.15,NW,309,6.0,11.0,61,0.00,,,0.01,Wunderground v.1.15,2013-10-10 18:38:00,
2013-10-10 14:40:00,69.2,54.3,30.15,NNW,345,6.0,6.0,59,0.00,,,0.01,Wunderground v.1.15,2013-10-10 18:40:00,
2013-10-10 14:41:00,69.3,54.8,30.15,NNW,339,6.0,7.0,60,0.00,,,0.01,Wunderground v.1.15,2013-10-10 18:41:00,
2013-10-10 14:44:00,69.3,53.9,30.15,NNE,16,6.0,14.0,58,0.00,,,0.01,Wunderground v.1.15,2013-10-10 18:44:00,
2013-10-10 14:45:00,69.2,53.8,30.15,NW,319,6.0,14.0,58,0.00,,,0.01,Wunderground v.1.15,2013-10-10 18:45:00,
2013-10-10 14:46:00,69.2,53.8,30.15,NW,310,7.0,14.0,58,0.00,,,0.01,Wunderground v.1.15,2013-10-10 18:46:00,
2013-10-10 14:49:00,69.1,54.2,30.15,North,355,7.0,14.0,59,0.00,,,0.01,Wunderground v.1.15,2013-10-10 18:49:00,
2013-10-10 14:50:00,69.1,54.2,30.15,NNW,340,7.0,7.0,59,0.00,,,0.01,Wunderground v.1.15,2013-10-10 18:50:00,
2013-10-10 14:51:00,69.2,53.8,30.15,NW,317,7.0,10.0,58,0.00,,,0.01,Wunderground v.1.15,2013-10-10 18:51:00,
2013-10-10 14:52:00,69.1,53.7,30.15,NNW,329,7.0,10.0,58,0.00,,,0.01,Wunderground v.1.15,2013-10-10 18:52:00,
2013-10-10 14:53:00,69.1,53.7,30.15,North,5,7.0,10.0,58,0.00,,,0.01,Wunderground v.1.15,2013-10-10 18:53:00,
2013-10-10 14:55:00,69.1,54.2,30.15,NW,309,7.0,10.0,59,0.00,,,0.01,Wunderground v.1.15,2013-10-10 18:55:00,
2013-10-10 14:56:00,69.1,53.7,30.15,NNE,27,7.0,10.0,58,0.00,,,0.01,Wunderground v.1.15,2013-10-10 18:56:00,
2013-10-10 14:57:00,69.2,53.8,30.15,West,281,7.0,10.0,58,0.00,,,0.01,Wunderground v.1.15,2013-10-10 18:57:00,
2013-10-10 14:58:00,69.2,54.3,30.15,WNW,298,7.0,10.0,59,0.00,,,0.01,Wunderground v.1.15,2013-10-10 18:58:00,
2013-10-10 14:59:00,69.3,54.8,30.15,NW,311,7.0,10.0,60,0.00,,,0.01,Wunderground v.1.15,2013-10-10 18:59:00,
2013-10-10 15:01:00,69.5,54.1,30.15,NNW,338,7.0,13.0,58,0.00,,,0.01,Wunderground v.1.15,2013-10-10 19:01:00,
2013-10-10 15:04:00,69.3,53.4,30.15,NNW,331,7.0,13.0,57,0.00,,,0.01,Wunderground v.1.15,2013-10-10 19:04:00,
2013-10-10 15:05:00,69.2,53.3,30.15,WNW,293,7.0,13.0,57,0.00,,,0.01,Wunderground v.1.15,2013-10-10 19:05:00,
2013-10-10 15:07:00,69.1,54.2,30.15,NW,319,7.0,13.0,59,0.00,,,0.01,Wunderground v.1.15,2013-10-10 19:07:00,
2013-10-10 15:10:00,69.2,54.3,30.15,NW,318,7.0,7.0,59,0.00,,,0.01,Wunderground v.1.15,2013-10-10 19:10:00,
2013-10-10 15:11:00,69.2,53.8,30.15,NNW,340,7.0,8.0,58,0.00,,,0.01,Wunderground v.1.15,2013-10-10 19:11:00,
2013-10-10 15:12:00,69.2,53.8,30.15,NW,317,7.0,8.0,58,0.00,,,0.01,Wunderground v.1.15,2013-10-10 19:12:00,
2013-10-10 15:13:00,69.2,53.8,30.15,NW,313,7.0,8.0,58,0.00,,,0.01,Wunderground v.1.15,2013-10-10 19:13:00,
2013-10-10 15:14:00,69.2,53.3,30.15,WNW,303,7.0,8.0,57,0.00,,,0.01,Wunderground v.1.15,2013-10-10 19:14:00,
2013-10-10 15:17:00,68.9,52.6,30.15,NW,319,7.0,10.0,56,0.00,,,0.01,Wunderground v.1.15,2013-10-10 19:17:00,
2013-10-10 15:18:00,68.8,52.9,30.15,NNW,338,8.0,11.0,57,0.00,,,0.01,Wunderground v.1.15,2013-10-10 19:18:00,
2013-10-10 15:19:00,68.8,53.4,30.15,NNW,342,8.0,11.0,58,0.00,,,0.01,Wunderground v.1.15,2013-10-10 19:19:00,
2013-10-10 15:20:00,68.8,53.4,30.15,North,5,7.0,7.0,58,0.00,,,0.01,Wunderground v.1.15,2013-10-10 19:20:00,
2013-10-10 15:24:00,68.9,53.0,30.15,WNW,293,7.0,12.0,57,0.00,,,0.01,Wunderground v.1.15,2013-10-10 19:24:00,
2013-10-10 15:25:00,68.9,53.5,30.14,North,355,7.0,12.0,58,0.00,,,0.01,Wunderground v.1.15,2013-10-10 19:25:00,
2013-10-10 15:26:00,68.9,53.5,30.15,North,5,7.0,12.0,58,0.00,,,0.01,Wunderground v.1.15,2013-10-10 19:26:00,
2013-10-10 15:28:00,68.9,53.5,30.15,NW,325,7.0,12.0,58,0.00,,,0.01,Wunderground v.1.15,2013-10-10 19:28:00,
2013-10-10 15:31:00,69.0,53.1,30.15,NW,306,7.0,8.0,57,0.00,,,0.01,Wunderground v.1.15,2013-10-10 19:31:00,
2013-10-10 15:32:00,68.9,53.0,30.15,WNW,295,7.0,8.0,57,0.00,,,0.01,Wunderground v.1.15,2013-10-10 19:32:00,
2013-10-10 15:33:00,68.9,53.5,30.15,NNE,19,7.0,8.0,58,0.00,,,0.01,Wunderground v.1.15,2013-10-10 19:33:00,
2013-10-10 15:37:00,68.8,53.4,30.15,NW,325,7.0,11.0,58,0.00,,,0.01,Wunderground v.1.15,2013-10-10 19:37:00,
2013-10-10 15:38:00,68.7,52.8,30.15,NNW,333,7.0,11.0,57,0.00,,,0.01,Wunderground v.1.15,2013-10-10 19:38:00,
2013-10-10 15:40:00,68.8,53.4,30.15,WNW,298,7.0,8.0,58,0.00,,,0.01,Wunderground v.1.15,2013-10-10 19:40:00,
2013-10-10 15:42:00,68.8,53.4,30.15,NW,323,7.0,10.0,58,0.00,,,0.01,Wunderground v.1.15,2013-10-10 19:42:00,
2013-10-10 15:44:00,68.6,52.8,30.15,NW,306,8.0,11.0,57,0.00,,,0.01,Wunderground v.1.15,2013-10-10 19:44:00,
2013-10-10 15:45:00,68.6,52.8,30.15,WNW,282,8.0,12.0,57,0.00,,,0.01,Wunderground v.1.15,2013-10-10 19:45:00,
2013-10-10 15:46:00,68.5,52.7,30.15,North,355,8.0,12.0,57,0.00,,,0.01,Wunderground v.1.15,2013-10-10 19:46:00,
2013-10-10 15:48:00,68.3,52.5,30.15,North,349,9.0,12.0,57,0.00,,,0.01,Wunderground v.1.15,2013-10-10 19:48:00,
2013-10-10 15:49:00,68.2,52.4,30.15,NNW,347,9.0,12.0,57,0.00,,,0.01,Wunderground v.1.15,2013-10-10 19:49:00,
2013-10-10 15:51:00,68.2,52.4,30.15,NW,308,10.0,10.0,57,0.00,,,0.01,Wunderground v.1.15,2013-10-10 19:51:00,
2013-10-10 15:53:00,68.2,52.9,30.15,NNW,336,10.0,10.0,58,0.00,,,0.01,Wunderground v.1.15,2013-10-10 19:53:00,
2013-10-10 15:54:00,68.3,52.9,30.15,NW,316,10.0,10.0,58,0.00,,,0.01,Wunderground v.1.15,2013-10-10 19:54:00,
2013-10-10 15:55:00,68.3,52.5,30.15,NW,325,10.0,10.0,57,0.00,,,0.01,Wunderground v.1.15,2013-10-10 19:55:00,
2013-10-10 15:58:00,68.3,53.4,30.15,NW,311,9.0,10.0,59,0.00,,,0.01,Wunderground v.1.15,2013-10-10 19:58:00,
2013-10-10 15:59:00,68.3,52.9,30.15,NNW,336,8.0,12.0,58,0.00,,,0.01,Wunderground v.1.15,2013-10-10 19:59:00,
2013-10-10 16:00:00,68.4,53.0,30.15,NNE,14,8.0,8.0,58,0.00,,,0.01,Wunderground v.1.15,2013-10-10 20:00:00,
2013-10-10 16:03:00,68.6,53.2,30.15,NW,308,8.0,8.0,58,0.00,,,0.01,Wunderground v.1.15,2013-10-10 20:03:00,
2013-10-10 16:04:00,68.6,53.2,30.15,NW,305,7.0,8.0,58,0.00,,,0.01,Wunderground v.1.15,2013-10-10 20:04:00,
2013-10-10 16:05:00,68.7,53.8,30.15,WNW,302,7.0,9.0,59,0.00,,,0.01,Wunderground v.1.15,2013-10-10 20:05:00,
2013-10-10 16:07:00,68.7,53.8,30.15,NW,305,7.0,9.0,59,0.00,,,0.01,Wunderground v.1.15,2013-10-10 20:07:00,
2013-10-10 16:09:00,68.8,53.9,30.15,North,355,7.0,10.0,59,0.00,,,0.01,Wunderground v.1.15,2013-10-10 20:09:00,
2013-10-10 16:10:00,68.8,53.4,30.14,NNW,329,7.0,7.0,58,0.00,,,0.01,Wunderground v.1.15,2013-10-10 20:10:00,
2013-10-10 16:12:00,68.7,52.8,30.15,NNE,16,7.0,9.0,57,0.00,,,0.01,Wunderground v.1.15,2013-10-10 20:12:00,
2013-10-10 16:13:00,68.7,53.3,30.15,NNW,338,7.0,9.0,58,0.00,,,0.01,Wunderground v.1.15,2013-10-10 20:13:00,
2013-10-10 16:15:00,68.8,53.4,30.15,NNE,13,6.0,13.0,58,0.00,,,0.01,Wunderground v.1.15,2013-10-10 20:15:00,
2013-10-10 16:18:00,68.6,53.2,30.14,North,360,8.0,13.0,58,0.00,,,0.01,Wunderground v.1.15,2013-10-10 20:18:00,
2013-10-10 16:19:00,68.6,54.2,30.14,WNW,300,7.0,13.0,60,0.00,,,0.01,Wunderground v.1.15,2013-10-10 20:19:00,
2013-10-10 16:21:00,68.6,53.2,30.14,NNW,340,7.0,8.0,58,0.00,,,0.01,Wunderground v.1.15,2013-10-10 20:21:00,
2013-10-10 16:22:00,68.6,53.2,30.14,NW,317,7.0,8.0,58,0.00,,,0.01,Wunderground v.1.15,2013-10-10 20:22:00,
2013-10-10 16:23:00,68.6,53.7,30.14,NE,36,7.0,8.0,59,0.00,,,0.01,Wunderground v.1.15,2013-10-10 20:23:00,
2013-10-10 16:24:00,68.7,53.8,30.14,NW,309,7.0,8.0,59,0.00,,,0.01,Wunderground v.1.15,2013-10-10 20:24:00,
2013-10-10 16:25:00,68.8,53.9,30.14,NW,309,7.0,8.0,59,0.00,,,0.01,Wunderground v.1.15,2013-10-10 20:25:00,
2013-10-10 16:26:00,68.8,54.3,30.14,North,350,6.0,8.0,60,0.00,,,0.01,Wunderground v.1.15,2013-10-10 20:26:00,
2013-10-10 16:28:00,69.0,53.6,30.14,NNW,339,6.0,8.0,58,0.00,,,0.01,Wunderground v.1.15,2013-10-10 20:28:00,
2013-10-10 16:29:00,68.9,53.0,30.14,NNE,29,6.0,8.0,57,0.00,,,0.01,Wunderground v.1.15,2013-10-10 20:29:00,
2013-10-10 16:30:00,68.9,53.5,30.14,NNW,347,6.0,6.0,58,0.00,,,0.01,Wunderground v.1.15,2013-10-10 20:30:00,
2013-10-10 16:33:00,69.0,54.1,30.14,North,11,6.0,7.0,59,0.00,,,0.01,Wunderground v.1.15,2013-10-10 20:33:00,
2013-10-10 16:35:00,68.9,53.5,30.14,NW,306,6.0,8.0,58,0.00,,,0.01,Wunderground v.1.15,2013-10-10 20:35:00,
2013-10-10 16:36:00,68.7,52.8,30.14,NNW,327,7.0,8.0,57,0.00,,,0.01,Wunderground v.1.15,2013-10-10 20:36:00,
2013-10-10 16:37:00,68.6,53.2,30.14,NW,320,7.0,8.0,58,0.00,,,0.01,Wunderground v.1.15,2013-10-10 20:37:00,
2013-10-10 16:38:00,68.5,53.1,30.14,NNW,346,7.0,8.0,58,0.00,,,0.01,Wunderground v.1.15,2013-10-10 20:38:00,
2013-10-10 16:40:00,68.3,53.4,30.14,NNW,336,8.0,8.0,59,0.00,,,0.01,Wunderground v.1.15,2013-10-10 20:40:00,
2013-10-10 16:42:00,68.3,53.9,30.14,NNW,335,8.0,8.0,60,0.00,,,0.01,Wunderground v.1.15,2013-10-10 20:42:00,
2013-10-10 16:44:00,68.5,54.1,30.14,NW,304,8.0,8.0,60,0.00,,,0.01,Wunderground v.1.15,2013-10-10 20:44:00,
2013-10-10 16:45:00,68.5,53.6,30.14,NNW,327,7.0,8.0,59,0.00,,,0.01,Wunderground v.1.15,2013-10-10 20:45:00,
2013-10-10 16:48:00,68.7,53.8,30.14,NW,325,6.0,8.0,59,0.00,,,0.01,Wunderground v.1.15,2013-10-10 20:48:00,
2013-10-10 16:49:00,68.6,53.7,30.14,NNW,344,6.0,8.0,59,0.00,,,0.01,Wunderground v.1.15,2013-10-10 20:49:00,
2013-10-10 16:50:00,68.5,53.6,30.14,NW,308,6.0,7.0,59,0.00,,,0.01,Wunderground v.1.15,2013-10-10 20:50:00,
2013-10-10 16:51:00,68.4,53.5,30.14,North,360,6.0,8.0,59,0.00,,,0.01,Wunderground v.1.15,2013-10-10 20:51:00,
2013-10-10 16:52:00,68.4,53.5,30.14,NW,319,6.0,8.0,59,0.00,,,0.01,Wunderground v.1.15,2013-10-10 20:52:00,
2013-10-10 16:55:00,68.3,54.3,30.13,WNW,297,7.0,8.0,61,0.00,,,0.01,Wunderground v.1.15,2013-10-10 20:55:00,
2013-10-10 16:56:00,68.3,54.3,30.13,WNW,301,7.0,8.0,61,0.00,,,0.01,Wunderground v.1.15,2013-10-10 20:56:00,
2013-10-10 16:57:00,68.3,53.9,30.13,NNW,336,7.0,8.0,60,0.00,,,0.01,Wunderground v.1.15,2013-10-10 20:57:00,
2013-10-10 16:58:00,68.3,53.9,30.13,NNE,19,7.0,8.0,60,0.00,,,0.01,Wunderground v.1.15,2013-10-10 20:58:00,
2013-10-10 17:01:00,68.4,54.9,30.13,WNW,290,6.0,6.0,62,0.00,,,0.01,Wunderground v.1.15,2013-10-10 21:01:00,
2013-10-10 17:02:00,68.5,55.0,30.13,NNW,327,6.0,6.0,62,0.00,,,0.01,Wunderground v.1.15,2013-10-10 21:02:00,
2013-10-10 17:04:00,68.6,54.6,30.13,WNW,286,5.0,8.0,61,0.00,,,0.01,Wunderground v.1.15,2013-10-10 21:04:00,
2013-10-10 17:05:00,68.6,54.2,30.13,NNW,340,6.0,8.0,60,0.00,,,0.01,Wunderground v.1.15,2013-10-10 21:05:00,
2013-10-10 17:06:00,68.6,54.2,30.13,North,351,6.0,8.0,60,0.00,,,0.01,Wunderground v.1.15,2013-10-10 21:06:00,
2013-10-10 17:09:00,68.6,53.7,30.13,North,351,5.0,10.0,59,0.00,,,0.01,Wunderground v.1.15,2013-10-10 21:09:00,
2013-10-10 17:10:00,68.5,54.1,30.13,NW,325,6.0,7.0,60,0.00,,,0.01,Wunderground v.1.15,2013-10-10 21:10:00,
2013-10-10 17:14:00,68.4,54.0,30.13,NW,321,6.0,8.0,60,0.00,,,0.01,Wunderground v.1.15,2013-10-10 21:14:00,
2013-10-10 17:16:00,68.4,54.4,30.13,WNW,288,6.0,8.0,61,0.00,,,0.01,Wunderground v.1.15,2013-10-10 21:16:00,
2013-10-10 17:17:00,68.4,54.4,30.13,West,276,6.0,8.0,61,0.00,,,0.01,Wunderground v.1.15,2013-10-10 21:17:00,
2013-10-10 17:19:00,68.5,55.0,30.13,WNW,297,6.0,8.0,62,0.00,,,0.01,Wunderground v.1.15,2013-10-10 21:19:00,
2013-10-10 17:21:00,68.5,54.1,30.13,WNW,297,5.0,8.0,60,0.00,,,0.01,Wunderground v.1.15,2013-10-10 21:21:00,
2013-10-10 17:23:00,68.4,54.4,30.13,WNW,294,6.0,10.0,61,0.00,,,0.01,Wunderground v.1.15,2013-10-10 21:23:00,
2013-10-10 17:24:00,68.4,54.0,30.13,NW,323,6.0,10.0,60,0.00,,,0.01,Wunderground v.1.15,2013-10-10 21:24:00,
2013-10-10 17:25:00,68.4,54.4,30.13,NW,325,6.0,11.0,61,0.00,,,0.01,Wunderground v.1.15,2013-10-10 21:25:00,
2013-10-10 17:27:00,68.2,53.8,30.13,WNW,298,6.0,11.0,60,0.00,,,0.01,Wunderground v.1.15,2013-10-10 21:27:00,
2013-10-10 17:29:00,68.1,54.1,30.13,NW,322,7.0,11.0,61,0.00,,,0.01,Wunderground v.1.15,2013-10-10 21:29:00,
2013-10-10 17:30:00,68.1,54.6,30.13,WNW,295,7.0,7.0,62,0.00,,,0.01,Wunderground v.1.15,2013-10-10 21:30:00,
2013-10-10 17:31:00,68.1,54.1,30.13,WNW,296,7.0,7.0,61,0.00,,,0.01,Wunderground v.1.15,2013-10-10 21:31:00,
2013-10-10 17:33:00,68.1,54.1,30.13,NW,305,7.0,8.0,61,0.00,,,0.01,Wunderground v.1.15,2013-10-10 21:33:00,
2013-10-10 17:35:00,68.1,54.1,30.13,WNW,300,7.0,8.0,61,0.00,,,0.01,Wunderground v.1.15,2013-10-10 21:35:00,
2013-10-10 17:36:00,68.0,54.0,30.13,NNW,327,6.0,8.0,61,0.00,,,0.01,Wunderground v.1.15,2013-10-10 21:36:00,
2013-10-10 17:38:00,67.9,53.5,30.13,NW,315,6.0,8.0,60,0.00,,,0.01,Wunderground v.1.15,2013-10-10 21:38:00,
2013-10-10 17:40:00,67.9,54.4,30.13,WNW,294,6.0,6.0,62,0.00,,,0.01,Wunderground v.1.15,2013-10-10 21:40:00,
2013-10-10 17:41:00,67.9,54.4,30.13,WNW,296,6.0,7.0,62,0.00,,,0.01,Wunderground v.1.15,2013-10-10 21:41:00,
2013-10-10 17:43:00,67.8,54.3,30.13,WNW,296,6.0,8.0,62,0.00,,,0.01,Wunderground v.1.15,2013-10-10 21:43:00,
2013-10-10 17:46:00,67.9,54.4,30.13,NNW,347,5.0,8.0,62,0.00,,,0.01,Wunderground v.1.15,2013-10-10 21:46:00,
2013-10-10 17:47:00,67.8,54.3,30.13,North,355,5.0,9.0,62,0.00,,,0.01,Wunderground v.1.15,2013-10-10 21:47:00,
2013-10-10 17:48:00,67.8,54.3,30.13,NW,310,5.0,9.0,62,0.00,,,0.01,Wunderground v.1.15,2013-10-10 21:48:00,
2013-10-10 17:50:00,67.7,53.8,30.13,WNW,300,5.0,5.0,61,0.00,,,0.01,Wunderground v.1.15,2013-10-10 21:50:00,
2013-10-10 17:51:00,67.7,54.2,30.13,NW,305,5.0,5.0,62,0.00,,,0.01,Wunderground v.1.15,2013-10-10 21:51:00,
2013-10-10 17:52:00,67.7,54.2,30.13,NW,322,5.0,5.0,62,0.00,,,0.01,Wunderground v.1.15,2013-10-10 21:52:00,
2013-10-10 17:56:00,67.9,54.8,30.13,NW,323,4.0,5.0,63,0.00,,,0.01,Wunderground v.1.15,2013-10-10 21:56:00,
2013-10-10 17:59:00,67.9,54.8,30.13,NNW,345,3.0,5.0,63,0.00,,,0.01,Wunderground v.1.15,2013-10-10 21:59:00,
2013-10-10 18:01:00,67.9,54.4,30.13,NNW,342,3.0,5.0,62,0.00,,,0.01,Wunderground v.1.15,2013-10-10 22:01:00,
2013-10-10 18:03:00,67.8,54.7,30.13,NW,311,3.0,5.0,63,0.00,,,0.01,Wunderground v.1.15,2013-10-10 22:03:00,
2013-10-10 18:05:00,67.7,55.1,30.13,NW,313,3.0,5.0,64,0.00,,,0.01,Wunderground v.1.15,2013-10-10 22:05:00,
2013-10-10 18:06:00,67.6,54.6,30.13,WNW,284,3.0,5.0,63,0.00,,,0.01,Wunderground v.1.15,2013-10-10 22:06:00,
2013-10-10 18:07:00,67.6,54.6,30.13,WNW,285,3.0,7.0,63,0.00,,,0.01,Wunderground v.1.15,2013-10-10 22:07:00,
2013-10-10 18:10:00,67.3,53.8,30.13,NW,305,4.0,4.0,62,0.00,,,0.01,Wunderground v.1.15,2013-10-10 22:10:00,
2013-10-10 18:11:00,67.2,54.2,30.13,WNW,299,4.0,4.0,63,0.00,,,0.01,Wunderground v.1.15,2013-10-10 22:11:00,
2013-10-10 18:13:00,67.2,54.6,30.13,NNW,344,4.0,5.0,64,0.00,,,0.01,Wunderground v.1.15,2013-10-10 22:13:00,
2013-10-10 18:14:00,67.1,54.1,30.13,WNW,300,4.0,5.0,63,0.00,,,0.01,Wunderground v.1.15,2013-10-10 22:14:00,
2013-10-10 18:15:00,67.1,54.5,30.13,West,280,4.0,5.0,64,0.00,,,0.01,Wunderground v.1.15,2013-10-10 22:15:00,
2013-10-10 18:16:00,67.1,54.5,30.13,NNW,344,4.0,5.0,64,0.00,,,0.01,Wunderground v.1.15,2013-10-10 22:16:00,
2013-10-10 18:18:00,67.0,54.8,30.13,NNE,28,3.0,5.0,65,0.00,,,0.01,Wunderground v.1.15,2013-10-10 22:18:00,
2013-10-10 18:21:00,66.8,53.8,30.13,West,275,3.0,9.0,63,0.00,,,0.01,Wunderground v.1.15,2013-10-10 22:21:00,
2013-10-10 18:22:00,66.7,53.7,30.13,NNW,336,4.0,9.0,63,0.00,,,0.01,Wunderground v.1.15,2013-10-10 22:22:00,
2013-10-10 18:23:00,66.6,54.0,30.13,WNW,299,4.0,9.0,64,0.00,,,0.01,Wunderground v.1.15,2013-10-10 22:23:00,
2013-10-10 18:25:00,66.5,53.9,30.13,West,273,4.0,9.0,64,0.00,,,0.01,Wunderground v.1.15,2013-10-10 22:25:00,
2013-10-10 18:26:00,66.4,53.8,30.13,NNW,327,4.0,9.0,64,0.00,,,0.01,Wunderground v.1.15,2013-10-10 22:26:00,
2013-10-10 18:28:00,66.3,53.8,30.13,NNW,328,5.0,9.0,64,0.00,,,0.01,Wunderground v.1.15,2013-10-10 22:28:00,
2013-10-10 18:29:00,66.2,53.7,30.13,NW,325,5.0,10.0,64,0.00,,,0.01,Wunderground v.1.15,2013-10-10 22:29:00,
2013-10-10 18:31:00,66.0,53.5,30.13,WNW,290,5.0,8.0,64,0.00,,,0.01,Wunderground v.1.15,2013-10-10 22:31:00,
2013-10-10 18:32:00,65.9,53.8,30.13,West,279,5.0,8.0,65,0.00,,,0.01,Wunderground v.1.15,2013-10-10 22:32:00,
2013-10-10 18:34:00,65.8,53.7,30.13,NNW,336,5.0,8.0,65,0.00,,,0.01,Wunderground v.1.15,2013-10-10 22:34:00,
2013-10-10 18:35:00,65.8,53.3,30.13,West,278,6.0,8.0,64,0.00,,,0.01,Wunderground v.1.15,2013-10-10 22:35:00,
2013-10-10 18:37:00,65.7,54.0,30.13,WNW,303,6.0,8.0,66,0.00,,,0.01,Wunderground v.1.15,2013-10-10 22:37:00,
2013-10-10 18:40:00,65.6,53.9,30.13,NW,306,4.0,4.0,66,0.00,,,0.01,Wunderground v.1.15,2013-10-10 22:40:00,
2013-10-10 18:42:00,65.4,53.7,30.13,West,280,4.0,4.0,66,0.00,,,0.01,Wunderground v.1.15,2013-10-10 22:42:00,
2013-10-10 18:43:00,65.3,53.6,30.13,WNW,297,4.0,4.0,66,0.00,,,0.01,Wunderground v.1.15,2013-10-10 22:43:00,
2013-10-10 18:46:00,65.2,54.0,30.13,WNW,297,3.0,4.0,67,0.00,,,0.01,Wunderground v.1.15,2013-10-10 22:46:00,
2013-10-10 18:47:00,65.1,54.3,30.13,WNW,297,2.0,4.0,68,0.00,,,0.01,Wunderground v.1.15,2013-10-10 22:47:00,
2013-10-10 18:48:00,65.0,54.2,30.13,WNW,293,2.0,6.0,68,0.00,,,0.01,Wunderground v.1.15,2013-10-10 22:48:00,
2013-10-10 18:51:00,64.7,53.1,30.13,NW,304,3.0,5.0,66,0.00,,,0.01,Wunderground v.1.15,2013-10-10 22:51:00,
2013-10-10 18:53:00,64.5,53.7,30.13,NNW,327,3.0,5.0,68,0.00,,,0.01,Wunderground v.1.15,2013-10-10 22:53:00,
2013-10-10 18:55:00,64.4,53.6,30.13,NW,315,3.0,5.0,68,0.00,,,0.01,Wunderground v.1.15,2013-10-10 22:55:00,
2013-10-10 18:56:00,64.3,53.5,30.13,NW,315,3.0,5.0,68,0.00,,,0.01,Wunderground v.1.15,2013-10-10 22:56:00,
2013-10-10 18:57:00,64.2,53.4,30.13,NW,315,3.0,5.0,68,0.00,,,0.01,Wunderground v.1.15,2013-10-10 22:57:00,
2013-10-10 19:01:00,63.9,53.1,30.13,NNW,331,2.0,2.0,68,0.00,,,0.01,Wunderground v.1.15,2013-10-10 23:01:00,
2013-10-10 19:02:00,63.9,53.1,30.13,NNW,332,2.0,2.0,68,0.00,,,0.01,Wunderground v.1.15,2013-10-10 23:02:00,
2013-10-10 19:04:00,63.7,53.3,30.13,NNW,328,1.0,2.0,69,0.00,,,0.01,Wunderground v.1.15,2013-10-10 23:04:00,
2013-10-10 19:05:00,63.6,53.2,30.13,WNW,300,1.0,2.0,69,0.00,,,0.01,Wunderground v.1.15,2013-10-10 23:05:00,
2013-10-10 19:06:00,63.6,53.2,30.13,WSW,237,1.0,2.0,69,0.00,,,0.01,Wunderground v.1.15,2013-10-10 23:06:00,
2013-10-10 19:08:00,63.5,53.5,30.13,NW,313,1.0,5.0,70,0.00,,,0.01,Wunderground v.1.15,2013-10-10 23:08:00,
2013-10-10 19:11:00,63.4,53.0,30.13,NW,325,2.0,2.0,69,0.00,,,0.01,Wunderground v.1.15,2013-10-10 23:11:00,
2013-10-10 19:12:00,63.4,53.0,30.13,NW,310,2.0,2.0,69,0.00,,,0.01,Wunderground v.1.15,2013-10-10 23:12:00,
2013-10-10 19:13:00,63.3,53.0,30.13,WNW,292,2.0,5.0,69,0.00,,,0.01,Wunderground v.1.15,2013-10-10 23:13:00,
2013-10-10 19:14:00,63.2,52.9,30.13,NW,324,2.0,5.0,69,0.00,,,0.01,Wunderground v.1.15,2013-10-10 23:14:00,
2013-10-10 19:17:00,63.0,53.1,30.13,West,274,2.0,5.0,70,0.00,,,0.01,Wunderground v.1.15,2013-10-10 23:17:00,
2013-10-10 19:18:00,62.9,53.4,30.13,West,274,3.0,5.0,71,0.00,,,0.01,Wunderground v.1.15,2013-10-10 23:18:00,
2013-10-10 19:19:00,62.9,53.4,30.13,West,274,2.0,5.0,71,0.00,,,0.01,Wunderground v.1.15,2013-10-10 23:19:00,
2013-10-10 19:20:00,62.8,53.3,30.13,West,274,2.0,2.0,71,0.00,,,0.01,Wunderground v.1.15,2013-10-10 23:20:00,
2013-10-10 19:21:00,62.7,53.5,30.13,West,274,1.0,2.0,72,0.00,,,0.01,Wunderground v.1.15,2013-10-10 23:21:00,
2013-10-10 19:22:00,62.7,53.5,30.13,West,274,1.0,2.0,72,0.00,,,0.01,Wunderground v.1.15,2013-10-10 23:22:00,
2013-10-10 19:23:00,62.6,53.4,30.13,West,274,1.0,2.0,72,0.00,,,0.01,Wunderground v.1.15,2013-10-10 23:23:00,
2013-10-10 19:26:00,62.2,53.4,30.14,West,274,0.0,2.0,73,0.00,,,0.01,Wunderground v.1.15,2013-10-10 23:26:00,
2013-10-10 19:28:00,62.0,53.6,30.14,West,274,0.0,2.0,74,0.00,,,0.01,Wunderground v.1.15,2013-10-10 23:28:00,
2013-10-10 19:29:00,61.8,53.4,30.14,SSW,198,0.0,2.0,74,0.00,,,0.01,Wunderground v.1.15,2013-10-10 23:29:00,
2013-10-10 19:31:00,61.5,53.5,30.14,SSW,198,0.0,1.0,75,0.00,,,0.01,Wunderground v.1.15,2013-10-10 23:31:00,
2013-10-10 19:32:00,61.3,53.3,30.14,SSW,198,0.0,1.0,75,0.00,,,0.01,Wunderground v.1.15,2013-10-10 23:32:00,
2013-10-10 19:34:00,61.1,53.5,30.14,SSW,198,0.0,1.0,76,0.00,,,0.01,Wunderground v.1.15,2013-10-10 23:34:00,
2013-10-10 19:35:00,61.0,53.0,30.14,SSW,198,0.0,1.0,75,0.00,,,0.01,Wunderground v.1.15,2013-10-10 23:35:00,
2013-10-10 19:38:00,61.1,52.7,30.14,NNW,340,1.0,5.0,74,0.00,,,0.01,Wunderground v.1.15,2013-10-10 23:38:00,
2013-10-10 19:39:00,61.1,53.1,30.14,NNW,340,1.0,5.0,75,0.00,,,0.01,Wunderground v.1.15,2013-10-10 23:39:00,
2013-10-10 19:41:00,61.1,53.1,30.14,North,5,1.0,1.0,75,0.00,,,0.01,Wunderground v.1.15,2013-10-10 23:41:00,
2013-10-10 19:43:00,61.1,53.1,30.14,North,5,1.0,1.0,75,0.00,,,0.01,Wunderground v.1.15,2013-10-10 23:43:00,
2013-10-10 19:45:00,61.0,53.0,30.14,North,5,1.0,1.0,75,0.00,,,0.01,Wunderground v.1.15,2013-10-10 23:45:00,
2013-10-10 19:46:00,60.9,52.9,30.14,North,5,1.0,1.0,75,0.00,,,0.01,Wunderground v.1.15,2013-10-10 23:46:00,
2013-10-10 19:47:00,60.9,53.3,30.14,North,5,1.0,1.0,76,0.00,,,0.01,Wunderground v.1.15,2013-10-10 23:47:00,
2013-10-10 19:48:00,60.7,53.1,30.14,North,5,1.0,1.0,76,0.00,,,0.01,Wunderground v.1.15,2013-10-10 23:48:00,
2013-10-10 19:52:00,60.6,52.6,30.14,ENE,62,1.0,4.0,75,0.00,,,0.01,Wunderground v.1.15,2013-10-10 23:52:00,
2013-10-10 19:53:00,60.5,52.5,30.14,ENE,62,1.0,4.0,75,0.00,,,0.01,Wunderground v.1.15,2013-10-10 23:53:00,
2013-10-10 19:56:00,60.4,52.4,30.14,ENE,62,1.0,4.0,75,0.00,,,0.01,Wunderground v.1.15,2013-10-10 23:56:00,
2013-10-10 19:58:00,60.4,52.4,30.14,ENE,62,1.0,4.0,75,0.00,,,0.01,Wunderground v.1.15,2013-10-10 23:58:00,
2013-10-10 19:59:00,60.4,52.4,30.14,ENE,62,1.0,4.0,75,0.00,,,0.01,Wunderground v.1.15,2013-10-10 23:59:00,
2013-10-10 20:01:00,60.2,53.0,30.14,ENE,62,0.0,2.0,77,0.00,,,0.01,Wunderground v.1.15,2013-10-11 00:01:00,
2013-10-10 20:03:00,60.0,52.4,30.14,ENE,62,1.0,2.0,76,0.00,,,0.01,Wunderground v.1.15,2013-10-11 00:03:00,
2013-10-10 20:04:00,59.9,52.7,30.14,ENE,62,1.0,3.0,77,0.00,,,0.01,Wunderground v.1.15,2013-10-11 00:04:00,
2013-10-10 20:08:00,59.6,52.4,30.14,ENE,68,2.0,4.0,77,0.00,,,0.01,Wunderground v.1.15,2013-10-11 00:08:00,
2013-10-10 20:09:00,59.5,52.3,30.14,ENE,68,2.0,4.0,77,0.00,,,0.01,Wunderground v.1.15,2013-10-11 00:09:00,
2013-10-10 20:11:00,59.5,52.6,30.14,ENE,68,2.0,2.0,78,0.00,,,0.01,Wunderground v.1.15,2013-10-11 00:11:00,
2013-10-10 20:13:00,59.3,52.4,30.14,ENE,68,2.0,2.0,78,0.00,,,0.01,Wunderground v.1.15,2013-10-11 00:13:00,
2013-10-10 20:14:00,59.2,52.3,30.14,ENE,68,2.0,2.0,78,0.00,,,0.01,Wunderground v.1.15,2013-10-11 00:14:00,
2013-10-10 20:17:00,59.0,52.1,30.14,East,84,2.0,2.0,78,0.00,,,0.01,Wunderground v.1.15,2013-10-11 00:17:00,
2013-10-10 20:19:00,59.0,51.8,30.14,NE,41,2.0,6.0,77,0.00,,,0.01,Wunderground v.1.15,2013-10-11 00:19:00,
2013-10-10 20:20:00,59.1,51.9,30.14,NNE,13,2.0,2.0,77,0.00,,,0.01,Wunderground v.1.15,2013-10-11 00:20:00,
2013-10-10 20:23:00,59.5,51.9,30.14,NNE,16,2.0,3.0,76,0.00,,,0.01,Wunderground v.1.15,2013-10-11 00:23:00,
2013-10-10 20:25:00,59.8,52.2,30.14,NNE,24,2.0,3.0,76,0.00,,,0.01,Wunderground v.1.15,2013-10-11 00:25:00,
2013-10-10 20:27:00,59.9,52.0,30.15,NE,49,2.0,3.0,75,0.00,,,0.01,Wunderground v.1.15,2013-10-11 00:27:00,
2013-10-10 20:28:00,59.9,52.0,30.15,NE,51,1.0,3.0,75,0.00,,,0.01,Wunderground v.1.15,2013-10-11 00:28:00,
2013-10-10 20:29:00,59.9,52.7,30.15,NE,55,1.0,3.0,77,0.00,,,0.01,Wunderground v.1.15,2013-10-11 00:29:00,
2013-10-10 20:30:00,59.8,52.6,30.15,NE,55,1.0,1.0,77,0.00,,,0.01,Wunderground v.1.15,2013-10-11 00:30:00,
2013-10-10 20:32:00,59.7,52.5,30.15,NE,55,1.0,1.0,77,0.00,,,0.01,Wunderground v.1.15,2013-10-11 00:32:00,
2013-10-10 20:34:00,59.4,52.5,30.15,NE,55,1.0,1.0,78,0.00,,,0.01,Wunderground v.1.15,2013-10-11 00:34:00,
2013-10-10 20:37:00,59.2,52.0,30.15,ENE,74,1.0,2.0,77,0.00,,,0.01,Wunderground v.1.15,2013-10-11 00:37:00,
2013-10-10 20:38:00,59.2,52.0,30.15,ESE,113,1.0,4.0,77,0.00,,,0.01,Wunderground v.1.15,2013-10-11 00:38:00,
2013-10-10 20:40:00,59.1,51.9,30.15,ESE,113,1.0,2.0,77,0.00,,,0.01,Wunderground v.1.15,2013-10-11 00:40:00,
2013-10-10 20:42:00,59.1,52.2,30.15,ESE,113,1.0,2.0,78,0.00,,,0.01,Wunderground v.1.15,2013-10-11 00:42:00,
2013-10-10 20:43:00,59.0,52.5,30.15,ESE,113,1.0,2.0,79,0.00,,,0.01,Wunderground v.1.15,2013-10-11 00:43:00,
2013-10-10 20:44:00,58.9,52.4,30.15,ESE,115,1.0,2.0,79,0.00,,,0.01,Wunderground v.1.15,2013-10-11 00:44:00,
2013-10-10 20:48:00,58.4,52.3,30.15,ESE,118,1.0,2.0,80,0.00,,,0.01,Wunderground v.1.15,2013-10-11 00:48:00,
2013-10-10 20:50:00,58.2,52.4,30.15,ESE,118,1.0,1.0,81,0.00,,,0.01,Wunderground v.1.15,2013-10-11 00:50:00,
2013-10-10 20:52:00,58.0,52.2,30.15,ESE,117,1.0,2.0,81,0.00,,,0.01,Wunderground v.1.15,2013-10-11 00:52:00,
2013-10-10 20:53:00,57.8,52.0,30.15,ESE,113,1.0,2.0,81,0.00,,,0.01,Wunderground v.1.15,2013-10-11 00:53:00,
2013-10-10 20:56:00,57.6,52.1,30.15,ESE,113,1.0,2.0,82,0.00,,,0.01,Wunderground v.1.15,2013-10-11 00:56:00,
2013-10-10 20:59:00,57.4,51.6,30.15,ESE,113,1.0,2.0,81,0.00,,,0.01,Wunderground v.1.15,2013-10-11 00:59:00,
2013-10-10 21:01:00,57.4,51.6,30.15,ESE,108,1.0,2.0,81,0.00,,,0.01,Wunderground v.1.15,2013-10-11 01:01:00,
2013-10-10 21:02:00,57.5,51.7,30.15,ESE,106,1.0,2.0,81,0.00,,,0.01,Wunderground v.1.15,2013-10-11 01:02:00,
2013-10-10 21:04:00,57.6,51.8,30.15,ESE,103,1.0,2.0,81,0.00,,,0.01,Wunderground v.1.15,2013-10-11 01:04:00,
2013-10-10 21:05:00,57.7,51.9,30.15,ESE,103,1.0,2.0,81,0.00,,,0.01,Wunderground v.1.15,2013-10-11 01:05:00,
2013-10-10 21:09:00,58.1,52.0,30.15,ENE,65,1.0,3.0,80,0.00,,,0.01,Wunderground v.1.15,2013-10-11 01:09:00,
2013-10-10 21:10:00,58.2,52.1,30.15,ENE,65,1.0,2.0,80,0.00,,,0.01,Wunderground v.1.15,2013-10-11 01:10:00,
2013-10-10 21:12:00,58.4,51.9,30.15,NE,38,1.0,3.0,79,0.00,,,0.01,Wunderground v.1.15,2013-10-11 01:12:00,
2013-10-10 21:14:00,58.7,52.2,30.15,NNE,20,1.0,3.0,79,0.00,,,0.01,Wunderground v.1.15,2013-10-11 01:14:00,
2013-10-10 21:16:00,59.0,52.1,30.15,North,11,2.0,3.0,78,0.00,,,0.01,Wunderground v.1.15,2013-10-11 01:16:00,
2013-10-10 21:18:00,59.4,52.2,30.15,NNW,333,2.0,4.0,77,0.00,,,0.01,Wunderground v.1.15,2013-10-11 01:18:00,
2013-10-10 21:20:00,59.6,52.4,30.15,NNW,332,2.0,2.0,77,0.00,,,0.01,Wunderground v.1.15,2013-10-11 01:20:00,
2013-10-10 21:23:00,59.6,52.4,30.15,NNW,332,2.0,2.0,77,0.00,,,0.01,Wunderground v.1.15,2013-10-11 01:23:00,
2013-10-10 21:25:00,59.4,52.2,30.15,NNW,332,2.0,2.0,77,0.00,,,0.01,Wunderground v.1.15,2013-10-11 01:25:00,
2013-10-10 21:26:00,59.4,52.2,30.15,NNW,332,2.0,2.0,77,0.00,,,0.01,Wunderground v.1.15,2013-10-11 01:26:00,
2013-10-10 21:31:00,59.1,52.2,30.15,NNW,332,1.0,1.0,78,0.00,,,0.01,Wunderground v.1.15,2013-10-11 01:31:00,
2013-10-10 21:33:00,59.0,52.1,30.15,NNW,332,1.0,1.0,78,0.00,,,0.01,Wunderground v.1.15,2013-10-11 01:33:00,
2013-10-10 21:34:00,58.9,52.1,30.15,NNW,332,1.0,1.0,78,0.00,,,0.01,Wunderground v.1.15,2013-10-11 01:34:00,
2013-10-10 21:35:00,58.9,52.4,30.15,NNW,332,1.0,1.0,79,0.00,,,0.01,Wunderground v.1.15,2013-10-11 01:35:00,
2013-10-10 21:38:00,58.8,52.3,30.15,NNW,332,0.0,1.0,79,0.00,,,0.01,Wunderground v.1.15,2013-10-11 01:38:00,
2013-10-10 21:39:00,58.7,52.2,30.15,NNW,332,0.0,1.0,79,0.00,,,0.01,Wunderground v.1.15,2013-10-11 01:39:00,
2013-10-10 21:40:00,58.7,52.2,30.15,NNW,332,0.0,1.0,79,0.00,,,0.01,Wunderground v.1.15,2013-10-11 01:40:00,
2013-10-10 21:43:00,58.7,52.2,30.15,NNW,331,0.0,1.0,79,0.00,,,0.01,Wunderground v.1.15,2013-10-11 01:43:00,
2013-10-10 21:44:00,58.6,52.1,30.15,NNW,331,0.0,1.0,79,0.00,,,0.01,Wunderground v.1.15,2013-10-11 01:44:00,
2013-10-10 21:45:00,58.5,52.0,30.15,NNW,331,0.0,1.0,79,0.00,,,0.01,Wunderground v.1.15,2013-10-11 01:45:00,
2013-10-10 21:48:00,58.4,52.3,30.15,NNW,331,0.0,1.0,80,0.00,,,0.01,Wunderground v.1.15,2013-10-11 01:48:00,
2013-10-10 21:50:00,58.3,52.2,30.15,NNW,330,0.0,1.0,80,0.00,,,0.01,Wunderground v.1.15,2013-10-11 01:50:00,
2013-10-10 21:53:00,58.2,52.1,30.15,NNW,340,1.0,3.0,80,0.00,,,0.01,Wunderground v.1.15,2013-10-11 01:53:00,
2013-10-10 21:55:00,58.3,52.2,30.15,NNW,346,1.0,3.0,80,0.00,,,0.01,Wunderground v.1.15,2013-10-11 01:55:00,
2013-10-10 21:56:00,58.4,52.3,30.15,North,5,1.0,3.0,80,0.00,,,0.01,Wunderground v.1.15,2013-10-11 01:56:00,
2013-10-10 21:58:00,58.5,52.4,30.15,North,355,1.0,3.0,80,0.00,,,0.01,Wunderground v.1.15,2013-10-11 01:58:00,
2013-10-10 21:59:00,58.6,52.4,30.15,North,355,1.0,3.0,80,0.00,,,0.01,Wunderground v.1.15,2013-10-11 01:59:00,
2013-10-10 22:00:00,58.6,52.4,30.15,North,355,1.0,1.0,80,0.00,,,0.01,Wunderground v.1.15,2013-10-11 02:00:00,
2013-10-10 22:04:00,58.3,52.2,30.15,NNE,15,1.0,2.0,80,0.00,,,0.01,Wunderground v.1.15,2013-10-11 02:04:00,
2013-10-10 22:05:00,58.1,52.3,30.15,NNE,17,1.0,3.0,81,0.00,,,0.01,Wunderground v.1.15,2013-10-11 02:05:00,
2013-10-10 22:09:00,56.9,51.8,30.15,ENE,69,1.0,3.0,83,0.00,,,0.01,Wunderground v.1.15,2013-10-11 02:09:00,
2013-10-10 22:11:00,56.4,51.6,30.15,ENE,69,1.0,1.0,84,0.00,,,0.01,Wunderground v.1.15,2013-10-11 02:11:00,
2013-10-10 22:12:00,56.2,51.7,30.15,ENE,69,1.0,1.0,85,0.00,,,0.01,Wunderground v.1.15,2013-10-11 02:12:00,
2013-10-10 22:13:00,56.1,51.7,30.15,ENE,69,1.0,1.0,85,0.00,,,0.01,Wunderground v.1.15,2013-10-11 02:13:00,
2013-10-10 22:14:00,55.9,51.8,30.15,ENE,69,1.0,1.0,86,0.00,,,0.01,Wunderground v.1.15,2013-10-11 02:14:00,
2013-10-10 22:16:00,55.7,51.6,30.15,ENE,69,1.0,1.0,86,0.00,,,0.01,Wunderground v.1.15,2013-10-11 02:16:00,
2013-10-10 22:17:00,55.7,51.6,30.15,ENE,69,1.0,1.0,86,0.00,,,0.01,Wunderground v.1.15,2013-10-11 02:17:00,
2013-10-10 22:18:00,55.6,51.5,30.15,ENE,69,0.0,1.0,86,0.00,,,0.01,Wunderground v.1.15,2013-10-11 02:18:00,
2013-10-10 22:19:00,55.5,51.7,30.15,ENE,69,0.0,1.0,87,0.00,,,0.01,Wunderground v.1.15,2013-10-11 02:19:00,
2013-10-10 22:20:00,55.5,51.7,30.15,ENE,69,0.0,1.0,87,0.00,,,0.01,Wunderground v.1.15,2013-10-11 02:20:00,
2013-10-10 22:22:00,55.3,51.5,30.15,ENE,69,0.0,1.0,87,0.00,,,0.01,Wunderground v.1.15,2013-10-11 02:22:00,
2013-10-10 22:23:00,55.2,51.4,30.15,ENE,69,0.0,1.0,87,0.00,,,0.01,Wunderground v.1.15,2013-10-11 02:23:00,
2013-10-10 22:25:00,54.9,51.4,30.15,ENE,69,0.0,2.0,88,0.00,,,0.01,Wunderground v.1.15,2013-10-11 02:25:00,
2013-10-10 22:26:00,54.9,51.4,30.15,ENE,69,0.0,2.0,88,0.00,,,0.01,Wunderground v.1.15,2013-10-11 02:26:00,
2013-10-10 22:28:00,54.6,51.4,30.14,ENE,69,0.0,2.0,89,0.00,,,0.01,Wunderground v.1.15,2013-10-11 02:28:00,
2013-10-10 22:31:00,54.4,51.2,30.14,ENE,69,0.0,1.0,89,0.00,,,0.01,Wunderground v.1.15,2013-10-11 02:31:00,
2013-10-10 22:32:00,54.3,51.4,30.14,ENE,69,0.0,1.0,90,0.00,,,0.01,Wunderground v.1.15,2013-10-11 02:32:00,
2013-10-10 22:33:00,54.3,51.4,30.14,ENE,69,0.0,1.0,90,0.00,,,0.01,Wunderground v.1.15,2013-10-11 02:33:00,
2013-10-10 22:36:00,54.2,51.3,30.14,ENE,69,0.0,1.0,90,0.00,,,0.01,Wunderground v.1.15,2013-10-11 02:36:00,
2013-10-10 22:37:00,54.2,51.3,30.14,ENE,69,0.0,1.0,90,0.00,,,0.01,Wunderground v.1.15,2013-10-11 02:37:00,
2013-10-10 22:38:00,54.2,51.3,30.14,ENE,69,0.0,1.0,90,0.00,,,0.01,Wunderground v.1.15,2013-10-11 02:38:00,
2013-10-10 22:40:00,54.2,51.3,30.14,ENE,69,0.0,1.0,90,0.00,,,0.01,Wunderground v.1.15,2013-10-11 02:40:00,
2013-10-10 22:41:00,54.3,51.4,30.14,ENE,69,0.0,1.0,90,0.00,,,0.01,Wunderground v.1.15,2013-10-11 02:41:00,
2013-10-10 22:43:00,54.3,51.4,30.14,ENE,69,0.0,1.0,90,0.00,,,0.01,Wunderground v.1.15,2013-10-11 02:43:00,
2013-10-10 22:45:00,54.4,51.5,30.14,ENE,69,0.0,1.0,90,0.00,,,0.01,Wunderground v.1.15,2013-10-11 02:45:00,
2013-10-10 22:46:00,54.4,51.2,30.14,ENE,69,0.0,1.0,89,0.00,,,0.01,Wunderground v.1.15,2013-10-11 02:46:00,
2013-10-10 22:48:00,54.2,51.0,30.14,ENE,69,0.0,1.0,89,0.00,,,0.01,Wunderground v.1.15,2013-10-11 02:48:00,
2013-10-10 22:49:00,54.1,50.9,30.14,ENE,69,0.0,1.0,89,0.00,,,0.01,Wunderground v.1.15,2013-10-11 02:49:00,
2013-10-10 22:52:00,53.7,50.8,30.14,East,101,0.0,2.0,90,0.00,,,0.01,Wunderground v.1.15,2013-10-11 02:52:00,
2013-10-10 22:53:00,53.6,50.7,30.14,East,101,0.0,2.0,90,0.00,,,0.01,Wunderground v.1.15,2013-10-11 02:53:00,
2013-10-10 22:54:00,53.4,50.8,30.14,East,101,1.0,2.0,91,0.00,,,0.01,Wunderground v.1.15,2013-10-11 02:54:00,
2013-10-10 22:55:00,53.3,50.7,30.14,East,101,1.0,2.0,91,0.00,,,0.01,Wunderground v.1.15,2013-10-11 02:55:00,
2013-10-10 22:57:00,53.2,50.9,30.14,East,101,1.0,2.0,92,0.00,,,0.01,Wunderground v.1.15,2013-10-11 02:57:00,
2013-10-10 23:01:00,53.1,51.1,30.14,East,101,1.0,1.0,93,0.00,,,0.01,Wunderground v.1.15,2013-10-11 03:01:00,
2013-10-10 23:02:00,53.1,51.1,30.13,East,101,1.0,1.0,93,0.00,,,0.01,Wunderground v.1.15,2013-10-11 03:02:00,
2013-10-10 23:03:00,53.1,51.1,30.13,East,101,1.0,2.0,93,0.00,,,0.01,Wunderground v.1.15,2013-10-11 03:03:00,
2013-10-10 23:04:00,53.1,51.1,30.13,NE,44,1.0,2.0,93,0.00,,,0.01,Wunderground v.1.15,2013-10-11 03:04:00,
2013-10-10 23:07:00,53.2,51.2,30.13,NE,45,1.0,2.0,93,0.00,,,0.01,Wunderground v.1.15,2013-10-11 03:07:00,
2013-10-10 23:09:00,53.2,51.2,30.13,NE,45,1.0,2.0,93,0.00,,,0.01,Wunderground v.1.15,2013-10-11 03:09:00,
2013-10-10 23:10:00,53.3,51.3,30.13,NE,45,1.0,1.0,93,0.00,,,0.01,Wunderground v.1.15,2013-10-11 03:10:00,
2013-10-10 23:13:00,53.3,51.0,30.13,ENE,65,2.0,2.0,92,0.00,,,0.01,Wunderground v.1.15,2013-10-11 03:13:00,
2013-10-10 23:14:00,53.2,50.9,30.13,ENE,65,2.0,2.0,92,0.00,,,0.01,Wunderground v.1.15,2013-10-11 03:14:00,
2013-10-10 23:16:00,53.2,50.9,30.13,ENE,65,1.0,2.0,92,0.00,,,0.01,Wunderground v.1.15,2013-10-11 03:16:00,
2013-10-10 23:17:00,53.2,50.9,30.13,ENE,65,1.0,2.0,92,0.00,,,0.01,Wunderground v.1.15,2013-10-11 03:17:00,
2013-10-10 23:18:00,53.2,50.9,30.13,ENE,65,1.0,2.0,92,0.00,,,0.01,Wunderground v.1.15,2013-10-11 03:18:00,
2013-10-10 23:19:00,53.2,50.9,30.13,ENE,65,1.0,2.0,92,0.00,,,0.01,Wunderground v.1.15,2013-10-11 03:19:00,
2013-10-10 23:21:00,53.0,50.7,30.13,ENE,65,1.0,1.0,92,0.00,,,0.01,Wunderground v.1.15,2013-10-11 03:21:00,
2013-10-10 23:22:00,53.0,50.7,30.13,ENE,65,1.0,1.0,92,0.00,,,0.01,Wunderground v.1.15,2013-10-11 03:22:00,
2013-10-10 23:24:00,52.8,50.5,30.13,ENE,65,0.0,1.0,92,0.00,,,0.01,Wunderground v.1.15,2013-10-11 03:24:00,
2013-10-10 23:25:00,52.8,50.5,30.13,ENE,65,0.0,1.0,92,0.00,,,0.01,Wunderground v.1.15,2013-10-11 03:25:00,
2013-10-10 23:28:00,52.7,50.7,30.13,ENE,65,0.0,1.0,93,0.00,,,0.01,Wunderground v.1.15,2013-10-11 03:28:00,
2013-10-10 23:30:00,52.6,50.6,30.13,ENE,65,0.0,0.0,93,0.00,,,0.01,Wunderground v.1.15,2013-10-11 03:30:00,
2013-10-10 23:31:00,52.6,50.6,30.13,ENE,65,0.0,4.0,93,0.00,,,0.01,Wunderground v.1.15,2013-10-11 03:31:00,
2013-10-10 23:33:00,52.6,50.6,30.13,ENE,65,0.0,4.0,93,0.00,,,0.01,Wunderground v.1.15,2013-10-11 03:33:00,
2013-10-10 23:35:00,52.6,50.6,30.13,ENE,65,0.0,4.0,93,0.00,,,0.01,Wunderground v.1.15,2013-10-11 03:35:00,
2013-10-10 23:36:00,52.5,50.5,30.13,ENE,65,0.0,4.0,93,0.00,,,0.01,Wunderground v.1.15,2013-10-11 03:36:00,
2013-10-10 23:37:00,52.5,50.5,30.13,ENE,65,0.0,4.0,93,0.00,,,0.01,Wunderground v.1.15,2013-10-11 03:37:00,
2013-10-10 23:38:00,52.4,50.4,30.13,ENE,65,0.0,4.0,93,0.00,,,0.01,Wunderground v.1.15,2013-10-11 03:38:00,
2013-10-10 23:39:00,52.3,50.3,30.13,ENE,65,0.0,4.0,93,0.00,,,0.01,Wunderground v.1.15,2013-10-11 03:39:00,
2013-10-10 23:41:00,52.2,50.2,30.13,ENE,65,0.0,4.0,93,0.00,,,0.01,Wunderground v.1.15,2013-10-11 03:41:00,
2013-10-10 23:42:00,52.2,50.2,30.13,ENE,65,0.0,4.0,93,0.00,,,0.01,Wunderground v.1.15,2013-10-11 03:42:00,
2013-10-10 23:43:00,52.2,50.2,30.13,ENE,65,0.0,4.0,93,0.00,,,0.01,Wunderground v.1.15,2013-10-11 03:43:00,
2013-10-10 23:45:00,52.1,50.1,30.13,ENE,65,0.0,4.0,93,0.00,,,0.01,Wunderground v.1.15,2013-10-11 03:45:00,
2013-10-10 23:46:00,52.0,50.3,30.13,ENE,65,0.0,4.0,94,0.00,,,0.01,Wunderground v.1.15,2013-10-11 03:46:00,
2013-10-10 23:47:00,52.0,50.3,30.13,ENE,65,0.0,4.0,94,0.00,,,0.01,Wunderground v.1.15,2013-10-11 03:47:00,
2013-10-10 23:49:00,51.9,50.2,30.13,ENE,65,0.0,4.0,94,0.00,,,0.01,Wunderground v.1.15,2013-10-11 03:49:00,
2013-10-10 23:50:00,51.9,50.2,30.13,ENE,65,0.0,4.0,94,0.00,,,0.01,Wunderground v.1.15,2013-10-11 03:50:00,
2013-10-10 23:51:00,51.8,50.1,30.13,ENE,65,0.0,4.0,94,0.00,,,0.01,Wunderground v.1.15,2013-10-11 03:51:00,
2013-10-10 23:54:00,51.7,50.0,30.13,ENE,65,0.0,4.0,94,0.00,,,0.01,Wunderground v.1.15,2013-10-11 03:54:00,
2013-10-10 23:55:00,51.6,49.9,30.13,ENE,65,0.0,4.0,94,0.00,,,0.01,Wunderground v.1.15,2013-10-11 03:55:00,
2013-10-10 23:57:00,51.4,49.7,30.13,ENE,65,0.0,4.0,94,0.00,,,0.01,Wunderground v.1.15,2013-10-11 03:57:00,
2013-10-10 23:59:00,51.3,49.6,30.13,ENE,65,0.0,4.0,94,0.00,,,0.01,Wunderground v.1.15,2013-10-11 03:59:00,